﻿<?xml version="1.0" encoding="UTF-8" standalone="no" ?>
<gpx xmlns="http://www.topografix.com/GPX/1/1" creator="CompeGPS" version="1.1" xmlns:xsi="http://www.w3.org/2001/XMLSchema-instance" xsi:schemaLocation="http://www.topografix.com/GPX/1/1 http://www.topografix.com/GPX/1/1/gpx.xsd http://www.garmin.com/xmlschemas/GpxExtensions/v3 http://www.garmin.com/xmlschemas/GpxExtensionsv3.xsd http://www.garmin.com/xmlschemas/TrackPointExtension/v1 http://www.garmin.com/xmlschemas/TrackPointExtensionv1.xsd" xmlns:gpxtpx="http://www.garmin.com/xmlschemas/TrackPointExtension/v1">
  <metadata>
    <link href="http://www.compegps.com">
      <text>CompeGPS TEAM, SL</text>
    </link>
    <time>2015-08-13T20:08:57Z</time>
    <bounds maxlat="43.363329" maxlon="1.819365" minlat="43.340734" minlon="1.772912"/>
  </metadata>
  <trk>
    <name>naurouze</name>
    <trkseg>
      <trkpt lat="43.362291" lon="1.775284">
        <ele>193.9</ele>
        <time>2015-08-04T12:36:34Z</time>
      </trkpt>
      <trkpt lat="43.362249" lon="1.775173">
        <ele>194.8</ele>
        <time>2015-08-04T12:36:39Z</time>
      </trkpt>
      <trkpt lat="43.362145" lon="1.775161">
        <ele>194.9</ele>
        <time>2015-08-04T12:36:43Z</time>
      </trkpt>
      <trkpt lat="43.362041" lon="1.775153">
        <ele>195.2</ele>
        <time>2015-08-04T12:36:47Z</time>
      </trkpt>
      <trkpt lat="43.361931" lon="1.775143">
        <ele>194.6</ele>
        <time>2015-08-04T12:36:51Z</time>
      </trkpt>
      <trkpt lat="43.361836" lon="1.775137">
        <ele>194.6</ele>
        <time>2015-08-04T12:36:54Z</time>
      </trkpt>
      <trkpt lat="43.361726" lon="1.775133">
        <ele>193.9</ele>
        <time>2015-08-04T12:36:57Z</time>
      </trkpt>
      <trkpt lat="43.361615" lon="1.775125">
        <ele>193.5</ele>
        <time>2015-08-04T12:37:00Z</time>
      </trkpt>
      <trkpt lat="43.361514" lon="1.775115">
        <ele>193.0</ele>
        <time>2015-08-04T12:37:03Z</time>
      </trkpt>
      <trkpt lat="43.361406" lon="1.775108">
        <ele>193.3</ele>
        <time>2015-08-04T12:37:06Z</time>
      </trkpt>
      <trkpt lat="43.361299" lon="1.775103">
        <ele>193.1</ele>
        <time>2015-08-04T12:37:09Z</time>
      </trkpt>
      <trkpt lat="43.361200" lon="1.775099">
        <ele>192.8</ele>
        <time>2015-08-04T12:37:12Z</time>
      </trkpt>
      <trkpt lat="43.361103" lon="1.775101">
        <ele>192.6</ele>
        <time>2015-08-04T12:37:15Z</time>
      </trkpt>
      <trkpt lat="43.361000" lon="1.775110">
        <ele>192.8</ele>
        <time>2015-08-04T12:37:18Z</time>
      </trkpt>
      <trkpt lat="43.360903" lon="1.775107">
        <ele>193.8</ele>
        <time>2015-08-04T12:37:21Z</time>
      </trkpt>
      <trkpt lat="43.360782" lon="1.775099">
        <ele>195.0</ele>
        <time>2015-08-04T12:37:25Z</time>
      </trkpt>
      <trkpt lat="43.360669" lon="1.775089">
        <ele>196.4</ele>
        <time>2015-08-04T12:37:30Z</time>
      </trkpt>
      <trkpt lat="43.360535" lon="1.775112">
        <ele>195.0</ele>
        <time>2015-08-04T12:37:35Z</time>
      </trkpt>
      <trkpt lat="43.360481" lon="1.775221">
        <ele>195.1</ele>
        <time>2015-08-04T12:37:39Z</time>
      </trkpt>
      <trkpt lat="43.360452" lon="1.775395">
        <ele>196.2</ele>
        <time>2015-08-04T12:37:42Z</time>
      </trkpt>
      <trkpt lat="43.360434" lon="1.775538">
        <ele>197.1</ele>
        <time>2015-08-04T12:37:44Z</time>
      </trkpt>
      <trkpt lat="43.360417" lon="1.775694">
        <ele>196.9</ele>
        <time>2015-08-04T12:37:46Z</time>
      </trkpt>
      <trkpt lat="43.360394" lon="1.775866">
        <ele>195.9</ele>
        <time>2015-08-04T12:37:48Z</time>
      </trkpt>
      <trkpt lat="43.360369" lon="1.776027">
        <ele>195.6</ele>
        <time>2015-08-04T12:37:50Z</time>
      </trkpt>
      <trkpt lat="43.360328" lon="1.776141">
        <ele>195.4</ele>
        <time>2015-08-04T12:37:52Z</time>
      </trkpt>
      <trkpt lat="43.360254" lon="1.776245">
        <ele>195.1</ele>
        <time>2015-08-04T12:37:55Z</time>
      </trkpt>
      <trkpt lat="43.360173" lon="1.776317">
        <ele>194.9</ele>
        <time>2015-08-04T12:37:58Z</time>
      </trkpt>
      <trkpt lat="43.360055" lon="1.776391">
        <ele>194.8</ele>
        <time>2015-08-04T12:38:02Z</time>
      </trkpt>
      <trkpt lat="43.359933" lon="1.776466">
        <ele>195.1</ele>
        <time>2015-08-04T12:38:06Z</time>
      </trkpt>
      <trkpt lat="43.359833" lon="1.776539">
        <ele>195.4</ele>
        <time>2015-08-04T12:38:10Z</time>
      </trkpt>
      <trkpt lat="43.359728" lon="1.776612">
        <ele>196.2</ele>
        <time>2015-08-04T12:38:15Z</time>
      </trkpt>
      <trkpt lat="43.359645" lon="1.776682">
        <ele>196.6</ele>
        <time>2015-08-04T12:38:19Z</time>
      </trkpt>
      <trkpt lat="43.359555" lon="1.776760">
        <ele>197.0</ele>
        <time>2015-08-04T12:38:23Z</time>
      </trkpt>
      <trkpt lat="43.359472" lon="1.776855">
        <ele>197.2</ele>
        <time>2015-08-04T12:38:27Z</time>
      </trkpt>
      <trkpt lat="43.359385" lon="1.776948">
        <ele>197.5</ele>
        <time>2015-08-04T12:38:31Z</time>
      </trkpt>
      <trkpt lat="43.359317" lon="1.777021">
        <ele>197.1</ele>
        <time>2015-08-04T12:38:34Z</time>
      </trkpt>
      <trkpt lat="43.359225" lon="1.777139">
        <ele>197.4</ele>
        <time>2015-08-04T12:38:38Z</time>
      </trkpt>
      <trkpt lat="43.359149" lon="1.777226">
        <ele>197.7</ele>
        <time>2015-08-04T12:38:41Z</time>
      </trkpt>
      <trkpt lat="43.359068" lon="1.777323">
        <ele>198.1</ele>
        <time>2015-08-04T12:38:44Z</time>
      </trkpt>
      <trkpt lat="43.358983" lon="1.777428">
        <ele>198.7</ele>
        <time>2015-08-04T12:38:47Z</time>
      </trkpt>
      <trkpt lat="43.358894" lon="1.777540">
        <ele>198.9</ele>
        <time>2015-08-04T12:38:50Z</time>
      </trkpt>
      <trkpt lat="43.358804" lon="1.777658">
        <ele>199.4</ele>
        <time>2015-08-04T12:38:53Z</time>
      </trkpt>
      <trkpt lat="43.358709" lon="1.777784">
        <ele>198.7</ele>
        <time>2015-08-04T12:38:56Z</time>
      </trkpt>
      <trkpt lat="43.358607" lon="1.777904">
        <ele>198.5</ele>
        <time>2015-08-04T12:38:59Z</time>
      </trkpt>
      <trkpt lat="43.358507" lon="1.778019">
        <ele>197.3</ele>
        <time>2015-08-04T12:39:02Z</time>
      </trkpt>
      <trkpt lat="43.358397" lon="1.778121">
        <ele>197.6</ele>
        <time>2015-08-04T12:39:05Z</time>
      </trkpt>
      <trkpt lat="43.358296" lon="1.778218">
        <ele>197.7</ele>
        <time>2015-08-04T12:39:08Z</time>
      </trkpt>
      <trkpt lat="43.358206" lon="1.778307">
        <ele>197.2</ele>
        <time>2015-08-04T12:39:11Z</time>
      </trkpt>
      <trkpt lat="43.358123" lon="1.778369">
        <ele>197.4</ele>
        <time>2015-08-04T12:39:14Z</time>
      </trkpt>
      <trkpt lat="43.358023" lon="1.778380">
        <ele>198.4</ele>
        <time>2015-08-04T12:39:20Z</time>
      </trkpt>
      <trkpt lat="43.357902" lon="1.778401">
        <ele>198.7</ele>
        <time>2015-08-04T12:39:26Z</time>
      </trkpt>
      <trkpt lat="43.357802" lon="1.778417">
        <ele>198.4</ele>
        <time>2015-08-04T12:39:29Z</time>
      </trkpt>
      <trkpt lat="43.357689" lon="1.778426">
        <ele>198.0</ele>
        <time>2015-08-04T12:39:32Z</time>
      </trkpt>
      <trkpt lat="43.357574" lon="1.778441">
        <ele>198.1</ele>
        <time>2015-08-04T12:39:35Z</time>
      </trkpt>
      <trkpt lat="43.357463" lon="1.778453">
        <ele>198.2</ele>
        <time>2015-08-04T12:39:38Z</time>
      </trkpt>
      <trkpt lat="43.357370" lon="1.778518">
        <ele>199.3</ele>
        <time>2015-08-04T12:39:41Z</time>
      </trkpt>
      <trkpt lat="43.357295" lon="1.778601">
        <ele>199.0</ele>
        <time>2015-08-04T12:39:44Z</time>
      </trkpt>
      <trkpt lat="43.357215" lon="1.778698">
        <ele>198.9</ele>
        <time>2015-08-04T12:39:47Z</time>
      </trkpt>
      <trkpt lat="43.357130" lon="1.778800">
        <ele>199.1</ele>
        <time>2015-08-04T12:39:50Z</time>
      </trkpt>
      <trkpt lat="43.357048" lon="1.778901">
        <ele>199.5</ele>
        <time>2015-08-04T12:39:53Z</time>
      </trkpt>
      <trkpt lat="43.356962" lon="1.779001">
        <ele>199.1</ele>
        <time>2015-08-04T12:39:56Z</time>
      </trkpt>
      <trkpt lat="43.356883" lon="1.779103">
        <ele>199.4</ele>
        <time>2015-08-04T12:39:59Z</time>
      </trkpt>
      <trkpt lat="43.356813" lon="1.779200">
        <ele>199.1</ele>
        <time>2015-08-04T12:40:02Z</time>
      </trkpt>
      <trkpt lat="43.356745" lon="1.779309">
        <ele>199.5</ele>
        <time>2015-08-04T12:40:05Z</time>
      </trkpt>
      <trkpt lat="43.356671" lon="1.779417">
        <ele>199.1</ele>
        <time>2015-08-04T12:40:08Z</time>
      </trkpt>
      <trkpt lat="43.356598" lon="1.779526">
        <ele>198.6</ele>
        <time>2015-08-04T12:40:11Z</time>
      </trkpt>
      <trkpt lat="43.356521" lon="1.779636">
        <ele>198.1</ele>
        <time>2015-08-04T12:40:14Z</time>
      </trkpt>
      <trkpt lat="43.356439" lon="1.779747">
        <ele>198.4</ele>
        <time>2015-08-04T12:40:17Z</time>
      </trkpt>
      <trkpt lat="43.356358" lon="1.779858">
        <ele>198.9</ele>
        <time>2015-08-04T12:40:20Z</time>
      </trkpt>
      <trkpt lat="43.356273" lon="1.779971">
        <ele>199.4</ele>
        <time>2015-08-04T12:40:23Z</time>
      </trkpt>
      <trkpt lat="43.356191" lon="1.780086">
        <ele>200.0</ele>
        <time>2015-08-04T12:40:26Z</time>
      </trkpt>
      <trkpt lat="43.356107" lon="1.780194">
        <ele>200.5</ele>
        <time>2015-08-04T12:40:29Z</time>
      </trkpt>
      <trkpt lat="43.356029" lon="1.780307">
        <ele>200.8</ele>
        <time>2015-08-04T12:40:32Z</time>
      </trkpt>
      <trkpt lat="43.355954" lon="1.780422">
        <ele>201.4</ele>
        <time>2015-08-04T12:40:35Z</time>
      </trkpt>
      <trkpt lat="43.355885" lon="1.780526">
        <ele>202.2</ele>
        <time>2015-08-04T12:40:38Z</time>
      </trkpt>
      <trkpt lat="43.355812" lon="1.780620">
        <ele>203.3</ele>
        <time>2015-08-04T12:40:41Z</time>
      </trkpt>
      <trkpt lat="43.355738" lon="1.780702">
        <ele>203.9</ele>
        <time>2015-08-04T12:40:44Z</time>
      </trkpt>
      <trkpt lat="43.355657" lon="1.780818">
        <ele>204.0</ele>
        <time>2015-08-04T12:40:48Z</time>
      </trkpt>
      <trkpt lat="43.355586" lon="1.780904">
        <ele>203.6</ele>
        <time>2015-08-04T12:40:51Z</time>
      </trkpt>
      <trkpt lat="43.355503" lon="1.780990">
        <ele>205.0</ele>
        <time>2015-08-04T12:40:54Z</time>
      </trkpt>
      <trkpt lat="43.355422" lon="1.781101">
        <ele>205.4</ele>
        <time>2015-08-04T12:40:58Z</time>
      </trkpt>
      <trkpt lat="43.355323" lon="1.781182">
        <ele>205.1</ele>
        <time>2015-08-04T12:41:02Z</time>
      </trkpt>
      <trkpt lat="43.355212" lon="1.781169">
        <ele>204.7</ele>
        <time>2015-08-04T12:41:06Z</time>
      </trkpt>
      <trkpt lat="43.355095" lon="1.781090">
        <ele>204.8</ele>
        <time>2015-08-04T12:41:10Z</time>
      </trkpt>
      <trkpt lat="43.354983" lon="1.781004">
        <ele>204.9</ele>
        <time>2015-08-04T12:41:14Z</time>
      </trkpt>
      <trkpt lat="43.354890" lon="1.780939">
        <ele>205.1</ele>
        <time>2015-08-04T12:41:18Z</time>
      </trkpt>
      <trkpt lat="43.354832" lon="1.780874">
        <ele>206.1</ele>
        <time>2015-08-04T12:41:27Z</time>
      </trkpt>
      <trkpt lat="43.354748" lon="1.780817">
        <ele>206.9</ele>
        <time>2015-08-04T12:41:33Z</time>
      </trkpt>
      <trkpt lat="43.354658" lon="1.780757">
        <ele>207.6</ele>
        <time>2015-08-04T12:41:39Z</time>
      </trkpt>
      <trkpt lat="43.354575" lon="1.780695">
        <ele>208.4</ele>
        <time>2015-08-04T12:41:43Z</time>
      </trkpt>
      <trkpt lat="43.354480" lon="1.780647">
        <ele>208.8</ele>
        <time>2015-08-04T12:41:47Z</time>
      </trkpt>
      <trkpt lat="43.354385" lon="1.780594">
        <ele>209.0</ele>
        <time>2015-08-04T12:41:51Z</time>
      </trkpt>
      <trkpt lat="43.354288" lon="1.780528">
        <ele>209.5</ele>
        <time>2015-08-04T12:41:55Z</time>
      </trkpt>
      <trkpt lat="43.354186" lon="1.780476">
        <ele>210.9</ele>
        <time>2015-08-04T12:41:59Z</time>
      </trkpt>
      <trkpt lat="43.354070" lon="1.780428">
        <ele>212.6</ele>
        <time>2015-08-04T12:42:03Z</time>
      </trkpt>
      <trkpt lat="43.353962" lon="1.780380">
        <ele>212.2</ele>
        <time>2015-08-04T12:42:07Z</time>
      </trkpt>
      <trkpt lat="43.353851" lon="1.780310">
        <ele>211.2</ele>
        <time>2015-08-04T12:42:11Z</time>
      </trkpt>
      <trkpt lat="43.353767" lon="1.780265">
        <ele>213.1</ele>
        <time>2015-08-04T12:42:14Z</time>
      </trkpt>
      <trkpt lat="43.353667" lon="1.780194">
        <ele>213.3</ele>
        <time>2015-08-04T12:42:18Z</time>
      </trkpt>
      <trkpt lat="43.353569" lon="1.780137">
        <ele>214.1</ele>
        <time>2015-08-04T12:42:22Z</time>
      </trkpt>
      <trkpt lat="43.353470" lon="1.780075">
        <ele>215.2</ele>
        <time>2015-08-04T12:42:26Z</time>
      </trkpt>
      <trkpt lat="43.353379" lon="1.780029">
        <ele>216.1</ele>
        <time>2015-08-04T12:42:30Z</time>
      </trkpt>
      <trkpt lat="43.353288" lon="1.779986">
        <ele>217.7</ele>
        <time>2015-08-04T12:42:34Z</time>
      </trkpt>
      <trkpt lat="43.353195" lon="1.779929">
        <ele>218.2</ele>
        <time>2015-08-04T12:42:38Z</time>
      </trkpt>
      <trkpt lat="43.353105" lon="1.779873">
        <ele>219.4</ele>
        <time>2015-08-04T12:42:42Z</time>
      </trkpt>
      <trkpt lat="43.353014" lon="1.779810">
        <ele>220.9</ele>
        <time>2015-08-04T12:42:46Z</time>
      </trkpt>
      <trkpt lat="43.352912" lon="1.779756">
        <ele>222.9</ele>
        <time>2015-08-04T12:42:51Z</time>
      </trkpt>
      <trkpt lat="43.352811" lon="1.779716">
        <ele>224.5</ele>
        <time>2015-08-04T12:42:56Z</time>
      </trkpt>
      <trkpt lat="43.352704" lon="1.779730">
        <ele>225.5</ele>
        <time>2015-08-04T12:43:01Z</time>
      </trkpt>
      <trkpt lat="43.352604" lon="1.779780">
        <ele>227.4</ele>
        <time>2015-08-04T12:43:06Z</time>
      </trkpt>
      <trkpt lat="43.352531" lon="1.779843">
        <ele>228.1</ele>
        <time>2015-08-04T12:43:10Z</time>
      </trkpt>
      <trkpt lat="43.352442" lon="1.779926">
        <ele>229.9</ele>
        <time>2015-08-04T12:43:15Z</time>
      </trkpt>
      <trkpt lat="43.352358" lon="1.780016">
        <ele>231.3</ele>
        <time>2015-08-04T12:43:20Z</time>
      </trkpt>
      <trkpt lat="43.352271" lon="1.780106">
        <ele>232.6</ele>
        <time>2015-08-04T12:43:25Z</time>
      </trkpt>
      <trkpt lat="43.352203" lon="1.780186">
        <ele>233.1</ele>
        <time>2015-08-04T12:43:29Z</time>
      </trkpt>
      <trkpt lat="43.352112" lon="1.780284">
        <ele>234.2</ele>
        <time>2015-08-04T12:43:34Z</time>
      </trkpt>
      <trkpt lat="43.352042" lon="1.780357">
        <ele>233.9</ele>
        <time>2015-08-04T12:43:38Z</time>
      </trkpt>
      <trkpt lat="43.351963" lon="1.780446">
        <ele>234.9</ele>
        <time>2015-08-04T12:43:43Z</time>
      </trkpt>
      <trkpt lat="43.351880" lon="1.780524">
        <ele>235.9</ele>
        <time>2015-08-04T12:43:48Z</time>
      </trkpt>
      <trkpt lat="43.351792" lon="1.780613">
        <ele>235.8</ele>
        <time>2015-08-04T12:43:53Z</time>
      </trkpt>
      <trkpt lat="43.351712" lon="1.780684">
        <ele>235.2</ele>
        <time>2015-08-04T12:43:57Z</time>
      </trkpt>
      <trkpt lat="43.351628" lon="1.780757">
        <ele>235.2</ele>
        <time>2015-08-04T12:44:01Z</time>
      </trkpt>
      <trkpt lat="43.351545" lon="1.780819">
        <ele>234.9</ele>
        <time>2015-08-04T12:44:05Z</time>
      </trkpt>
      <trkpt lat="43.351449" lon="1.780880">
        <ele>234.2</ele>
        <time>2015-08-04T12:44:09Z</time>
      </trkpt>
      <trkpt lat="43.351347" lon="1.780954">
        <ele>234.8</ele>
        <time>2015-08-04T12:44:13Z</time>
      </trkpt>
      <trkpt lat="43.351245" lon="1.781010">
        <ele>235.6</ele>
        <time>2015-08-04T12:44:17Z</time>
      </trkpt>
      <trkpt lat="43.351142" lon="1.781074">
        <ele>236.6</ele>
        <time>2015-08-04T12:44:21Z</time>
      </trkpt>
      <trkpt lat="43.351058" lon="1.781145">
        <ele>238.7</ele>
        <time>2015-08-04T12:44:25Z</time>
      </trkpt>
      <trkpt lat="43.350960" lon="1.781223">
        <ele>240.3</ele>
        <time>2015-08-04T12:44:29Z</time>
      </trkpt>
      <trkpt lat="43.350861" lon="1.781310">
        <ele>241.9</ele>
        <time>2015-08-04T12:44:33Z</time>
      </trkpt>
      <trkpt lat="43.350793" lon="1.781428">
        <ele>244.1</ele>
        <time>2015-08-04T12:44:37Z</time>
      </trkpt>
      <trkpt lat="43.350757" lon="1.781572">
        <ele>245.4</ele>
        <time>2015-08-04T12:44:41Z</time>
      </trkpt>
      <trkpt lat="43.350707" lon="1.781699">
        <ele>246.3</ele>
        <time>2015-08-04T12:44:45Z</time>
      </trkpt>
      <trkpt lat="43.350661" lon="1.781824">
        <ele>246.4</ele>
        <time>2015-08-04T12:44:49Z</time>
      </trkpt>
      <trkpt lat="43.350636" lon="1.781970">
        <ele>247.7</ele>
        <time>2015-08-04T12:44:54Z</time>
      </trkpt>
      <trkpt lat="43.350609" lon="1.782113">
        <ele>246.6</ele>
        <time>2015-08-04T12:44:59Z</time>
      </trkpt>
      <trkpt lat="43.350573" lon="1.782262">
        <ele>246.9</ele>
        <time>2015-08-04T12:45:04Z</time>
      </trkpt>
      <trkpt lat="43.350539" lon="1.782406">
        <ele>247.9</ele>
        <time>2015-08-04T12:45:09Z</time>
      </trkpt>
      <trkpt lat="43.350540" lon="1.782546">
        <ele>247.4</ele>
        <time>2015-08-04T12:45:15Z</time>
      </trkpt>
      <trkpt lat="43.350505" lon="1.782687">
        <ele>247.8</ele>
        <time>2015-08-04T12:45:21Z</time>
      </trkpt>
      <trkpt lat="43.350431" lon="1.782806">
        <ele>249.4</ele>
        <time>2015-08-04T12:45:27Z</time>
      </trkpt>
      <trkpt lat="43.350362" lon="1.782932">
        <ele>249.0</ele>
        <time>2015-08-04T12:45:32Z</time>
      </trkpt>
      <trkpt lat="43.350300" lon="1.783069">
        <ele>249.6</ele>
        <time>2015-08-04T12:45:37Z</time>
      </trkpt>
      <trkpt lat="43.350253" lon="1.783185">
        <ele>248.8</ele>
        <time>2015-08-04T12:45:41Z</time>
      </trkpt>
      <trkpt lat="43.350192" lon="1.783295">
        <ele>248.3</ele>
        <time>2015-08-04T12:45:45Z</time>
      </trkpt>
      <trkpt lat="43.350109" lon="1.783404">
        <ele>248.0</ele>
        <time>2015-08-04T12:45:49Z</time>
      </trkpt>
      <trkpt lat="43.350027" lon="1.783486">
        <ele>246.9</ele>
        <time>2015-08-04T12:45:53Z</time>
      </trkpt>
      <trkpt lat="43.349927" lon="1.783573">
        <ele>244.7</ele>
        <time>2015-08-04T12:45:58Z</time>
      </trkpt>
      <trkpt lat="43.349834" lon="1.783665">
        <ele>243.4</ele>
        <time>2015-08-04T12:46:04Z</time>
      </trkpt>
      <trkpt lat="43.349792" lon="1.783750">
        <ele>248.0</ele>
        <time>2015-08-04T12:46:50Z</time>
      </trkpt>
      <trkpt lat="43.349700" lon="1.783803">
        <ele>249.1</ele>
        <time>2015-08-04T12:46:56Z</time>
      </trkpt>
      <trkpt lat="43.349612" lon="1.783860">
        <ele>250.4</ele>
        <time>2015-08-04T12:47:01Z</time>
      </trkpt>
      <trkpt lat="43.349664" lon="1.783825">
        <ele>250.7</ele>
        <time>2015-08-04T12:47:11Z</time>
      </trkpt>
      <trkpt lat="43.349595" lon="1.783887">
        <ele>248.6</ele>
        <time>2015-08-04T12:48:15Z</time>
      </trkpt>
      <trkpt lat="43.349507" lon="1.783968">
        <ele>248.5</ele>
        <time>2015-08-04T12:48:36Z</time>
      </trkpt>
      <trkpt lat="43.349412" lon="1.784041">
        <ele>247.9</ele>
        <time>2015-08-04T12:48:41Z</time>
      </trkpt>
      <trkpt lat="43.349313" lon="1.784122">
        <ele>247.7</ele>
        <time>2015-08-04T12:48:45Z</time>
      </trkpt>
      <trkpt lat="43.349218" lon="1.784195">
        <ele>247.0</ele>
        <time>2015-08-04T12:48:49Z</time>
      </trkpt>
      <trkpt lat="43.349140" lon="1.784257">
        <ele>247.0</ele>
        <time>2015-08-04T12:48:52Z</time>
      </trkpt>
      <trkpt lat="43.349066" lon="1.784354">
        <ele>247.5</ele>
        <time>2015-08-04T12:48:56Z</time>
      </trkpt>
      <trkpt lat="43.348999" lon="1.784390">
        <ele>248.8</ele>
        <time>2015-08-04T12:49:41Z</time>
      </trkpt>
      <trkpt lat="43.348919" lon="1.784475">
        <ele>249.0</ele>
        <time>2015-08-04T12:49:45Z</time>
      </trkpt>
      <trkpt lat="43.348835" lon="1.784587">
        <ele>249.6</ele>
        <time>2015-08-04T12:49:49Z</time>
      </trkpt>
      <trkpt lat="43.348744" lon="1.784659">
        <ele>249.6</ele>
        <time>2015-08-04T12:49:53Z</time>
      </trkpt>
      <trkpt lat="43.348674" lon="1.784736">
        <ele>250.1</ele>
        <time>2015-08-04T12:49:56Z</time>
      </trkpt>
      <trkpt lat="43.348590" lon="1.784827">
        <ele>251.3</ele>
        <time>2015-08-04T12:50:00Z</time>
      </trkpt>
      <trkpt lat="43.348515" lon="1.784919">
        <ele>252.6</ele>
        <time>2015-08-04T12:50:05Z</time>
      </trkpt>
      <trkpt lat="43.348430" lon="1.785000">
        <ele>254.4</ele>
        <time>2015-08-04T12:50:09Z</time>
      </trkpt>
      <trkpt lat="43.348352" lon="1.785088">
        <ele>255.4</ele>
        <time>2015-08-04T12:50:13Z</time>
      </trkpt>
      <trkpt lat="43.348278" lon="1.785177">
        <ele>256.8</ele>
        <time>2015-08-04T12:50:17Z</time>
      </trkpt>
      <trkpt lat="43.348203" lon="1.785260">
        <ele>257.0</ele>
        <time>2015-08-04T12:50:21Z</time>
      </trkpt>
      <trkpt lat="43.348127" lon="1.785351">
        <ele>257.4</ele>
        <time>2015-08-04T12:50:25Z</time>
      </trkpt>
      <trkpt lat="43.348050" lon="1.785441">
        <ele>258.0</ele>
        <time>2015-08-04T12:50:29Z</time>
      </trkpt>
      <trkpt lat="43.347979" lon="1.785534">
        <ele>258.0</ele>
        <time>2015-08-04T12:50:33Z</time>
      </trkpt>
      <trkpt lat="43.347888" lon="1.785642">
        <ele>257.9</ele>
        <time>2015-08-04T12:50:37Z</time>
      </trkpt>
      <trkpt lat="43.347812" lon="1.785739">
        <ele>257.9</ele>
        <time>2015-08-04T12:50:40Z</time>
      </trkpt>
      <trkpt lat="43.347813" lon="1.785884">
        <ele>258.7</ele>
        <time>2015-08-04T12:50:44Z</time>
      </trkpt>
      <trkpt lat="43.347892" lon="1.785987">
        <ele>261.2</ele>
        <time>2015-08-04T12:50:49Z</time>
      </trkpt>
      <trkpt lat="43.347962" lon="1.786075">
        <ele>261.2</ele>
        <time>2015-08-04T12:50:53Z</time>
      </trkpt>
      <trkpt lat="43.348008" lon="1.786142">
        <ele>261.5</ele>
        <time>2015-08-04T12:55:55Z</time>
      </trkpt>
      <trkpt lat="43.348044" lon="1.786179">
        <ele>261.5</ele>
        <time>2015-08-04T12:59:35Z</time>
      </trkpt>
      <trkpt lat="43.348111" lon="1.786245">
        <ele>261.4</ele>
        <time>2015-08-04T12:59:50Z</time>
      </trkpt>
      <trkpt lat="43.348166" lon="1.786381">
        <ele>259.6</ele>
        <time>2015-08-04T12:59:54Z</time>
      </trkpt>
      <trkpt lat="43.348205" lon="1.786519">
        <ele>257.7</ele>
        <time>2015-08-04T12:59:58Z</time>
      </trkpt>
      <trkpt lat="43.348242" lon="1.786643">
        <ele>256.0</ele>
        <time>2015-08-04T13:00:01Z</time>
      </trkpt>
      <trkpt lat="43.348303" lon="1.786760">
        <ele>254.2</ele>
        <time>2015-08-04T13:00:04Z</time>
      </trkpt>
      <trkpt lat="43.348390" lon="1.786849">
        <ele>252.7</ele>
        <time>2015-08-04T13:00:07Z</time>
      </trkpt>
      <trkpt lat="43.348494" lon="1.786929">
        <ele>251.0</ele>
        <time>2015-08-04T13:00:10Z</time>
      </trkpt>
      <trkpt lat="43.348602" lon="1.787016">
        <ele>250.5</ele>
        <time>2015-08-04T13:00:13Z</time>
      </trkpt>
      <trkpt lat="43.348693" lon="1.787121">
        <ele>249.4</ele>
        <time>2015-08-04T13:00:16Z</time>
      </trkpt>
      <trkpt lat="43.348773" lon="1.787231">
        <ele>248.8</ele>
        <time>2015-08-04T13:00:19Z</time>
      </trkpt>
      <trkpt lat="43.348832" lon="1.787336">
        <ele>247.8</ele>
        <time>2015-08-04T13:00:22Z</time>
      </trkpt>
      <trkpt lat="43.348917" lon="1.787460">
        <ele>246.4</ele>
        <time>2015-08-04T13:00:26Z</time>
      </trkpt>
      <trkpt lat="43.348986" lon="1.787564">
        <ele>245.0</ele>
        <time>2015-08-04T13:00:29Z</time>
      </trkpt>
      <trkpt lat="43.349062" lon="1.787682">
        <ele>243.3</ele>
        <time>2015-08-04T13:00:32Z</time>
      </trkpt>
      <trkpt lat="43.349135" lon="1.787798">
        <ele>242.5</ele>
        <time>2015-08-04T13:00:35Z</time>
      </trkpt>
      <trkpt lat="43.349206" lon="1.787910">
        <ele>241.3</ele>
        <time>2015-08-04T13:00:38Z</time>
      </trkpt>
      <trkpt lat="43.349289" lon="1.788038">
        <ele>239.8</ele>
        <time>2015-08-04T13:00:41Z</time>
      </trkpt>
      <trkpt lat="43.349362" lon="1.788161">
        <ele>238.9</ele>
        <time>2015-08-04T13:00:44Z</time>
      </trkpt>
      <trkpt lat="43.349430" lon="1.788276">
        <ele>237.6</ele>
        <time>2015-08-04T13:00:47Z</time>
      </trkpt>
      <trkpt lat="43.349499" lon="1.788401">
        <ele>235.9</ele>
        <time>2015-08-04T13:00:50Z</time>
      </trkpt>
      <trkpt lat="43.349561" lon="1.788535">
        <ele>234.2</ele>
        <time>2015-08-04T13:00:54Z</time>
      </trkpt>
      <trkpt lat="43.349619" lon="1.788646">
        <ele>232.1</ele>
        <time>2015-08-04T13:00:57Z</time>
      </trkpt>
      <trkpt lat="43.349665" lon="1.788776">
        <ele>230.5</ele>
        <time>2015-08-04T13:01:01Z</time>
      </trkpt>
      <trkpt lat="43.349710" lon="1.788923">
        <ele>228.7</ele>
        <time>2015-08-04T13:01:05Z</time>
      </trkpt>
      <trkpt lat="43.349741" lon="1.789047">
        <ele>227.1</ele>
        <time>2015-08-04T13:01:08Z</time>
      </trkpt>
      <trkpt lat="43.349774" lon="1.789188">
        <ele>225.2</ele>
        <time>2015-08-04T13:01:11Z</time>
      </trkpt>
      <trkpt lat="43.349781" lon="1.789329">
        <ele>224.1</ele>
        <time>2015-08-04T13:01:14Z</time>
      </trkpt>
      <trkpt lat="43.349797" lon="1.789496">
        <ele>222.8</ele>
        <time>2015-08-04T13:01:17Z</time>
      </trkpt>
      <trkpt lat="43.349822" lon="1.789616">
        <ele>221.9</ele>
        <time>2015-08-04T13:01:19Z</time>
      </trkpt>
      <trkpt lat="43.349864" lon="1.789736">
        <ele>221.5</ele>
        <time>2015-08-04T13:01:21Z</time>
      </trkpt>
      <trkpt lat="43.349919" lon="1.789843">
        <ele>221.6</ele>
        <time>2015-08-04T13:01:23Z</time>
      </trkpt>
      <trkpt lat="43.349984" lon="1.789939">
        <ele>221.6</ele>
        <time>2015-08-04T13:01:25Z</time>
      </trkpt>
      <trkpt lat="43.350044" lon="1.790031">
        <ele>221.2</ele>
        <time>2015-08-04T13:01:27Z</time>
      </trkpt>
      <trkpt lat="43.350093" lon="1.790162">
        <ele>221.6</ele>
        <time>2015-08-04T13:01:30Z</time>
      </trkpt>
      <trkpt lat="43.350139" lon="1.790288">
        <ele>221.3</ele>
        <time>2015-08-04T13:01:33Z</time>
      </trkpt>
      <trkpt lat="43.350170" lon="1.790404">
        <ele>221.2</ele>
        <time>2015-08-04T13:01:36Z</time>
      </trkpt>
      <trkpt lat="43.350154" lon="1.790542">
        <ele>222.1</ele>
        <time>2015-08-04T13:01:40Z</time>
      </trkpt>
      <trkpt lat="43.350129" lon="1.790690">
        <ele>225.0</ele>
        <time>2015-08-04T13:01:45Z</time>
      </trkpt>
      <trkpt lat="43.350138" lon="1.790847">
        <ele>226.4</ele>
        <time>2015-08-04T13:01:50Z</time>
      </trkpt>
      <trkpt lat="43.350156" lon="1.790984">
        <ele>226.8</ele>
        <time>2015-08-04T13:01:54Z</time>
      </trkpt>
      <trkpt lat="43.350173" lon="1.791110">
        <ele>227.7</ele>
        <time>2015-08-04T13:01:58Z</time>
      </trkpt>
      <trkpt lat="43.350184" lon="1.791240">
        <ele>228.2</ele>
        <time>2015-08-04T13:02:02Z</time>
      </trkpt>
      <trkpt lat="43.350205" lon="1.791391">
        <ele>228.4</ele>
        <time>2015-08-04T13:02:07Z</time>
      </trkpt>
      <trkpt lat="43.350210" lon="1.791529">
        <ele>229.0</ele>
        <time>2015-08-04T13:02:11Z</time>
      </trkpt>
      <trkpt lat="43.350211" lon="1.791652">
        <ele>230.3</ele>
        <time>2015-08-04T13:02:15Z</time>
      </trkpt>
      <trkpt lat="43.350220" lon="1.791800">
        <ele>231.2</ele>
        <time>2015-08-04T13:02:20Z</time>
      </trkpt>
      <trkpt lat="43.350226" lon="1.791955">
        <ele>232.1</ele>
        <time>2015-08-04T13:02:25Z</time>
      </trkpt>
      <trkpt lat="43.350232" lon="1.792110">
        <ele>234.2</ele>
        <time>2015-08-04T13:02:30Z</time>
      </trkpt>
      <trkpt lat="43.350244" lon="1.792255">
        <ele>235.4</ele>
        <time>2015-08-04T13:02:35Z</time>
      </trkpt>
      <trkpt lat="43.350250" lon="1.792387">
        <ele>235.5</ele>
        <time>2015-08-04T13:02:40Z</time>
      </trkpt>
      <trkpt lat="43.350273" lon="1.792525">
        <ele>237.4</ele>
        <time>2015-08-04T13:02:56Z</time>
      </trkpt>
      <trkpt lat="43.350275" lon="1.792653">
        <ele>237.6</ele>
        <time>2015-08-04T13:03:03Z</time>
      </trkpt>
      <trkpt lat="43.350237" lon="1.792708">
        <ele>239.3</ele>
        <time>2015-08-04T13:04:51Z</time>
      </trkpt>
      <trkpt lat="43.350263" lon="1.792705">
        <ele>240.1</ele>
        <time>2015-08-04T13:05:19Z</time>
      </trkpt>
      <trkpt lat="43.350290" lon="1.792849">
        <ele>239.5</ele>
        <time>2015-08-04T13:05:42Z</time>
      </trkpt>
      <trkpt lat="43.350332" lon="1.792995">
        <ele>240.1</ele>
        <time>2015-08-04T13:05:48Z</time>
      </trkpt>
      <trkpt lat="43.350387" lon="1.793105">
        <ele>240.1</ele>
        <time>2015-08-04T13:05:52Z</time>
      </trkpt>
      <trkpt lat="43.350463" lon="1.793185">
        <ele>239.8</ele>
        <time>2015-08-04T13:05:56Z</time>
      </trkpt>
      <trkpt lat="43.350535" lon="1.793264">
        <ele>239.8</ele>
        <time>2015-08-04T13:06:00Z</time>
      </trkpt>
      <trkpt lat="43.350613" lon="1.793349">
        <ele>240.8</ele>
        <time>2015-08-04T13:06:05Z</time>
      </trkpt>
      <trkpt lat="43.350615" lon="1.793472">
        <ele>242.1</ele>
        <time>2015-08-04T13:06:14Z</time>
      </trkpt>
      <trkpt lat="43.350532" lon="1.793519">
        <ele>242.9</ele>
        <time>2015-08-04T13:06:21Z</time>
      </trkpt>
      <trkpt lat="43.350441" lon="1.793557">
        <ele>243.4</ele>
        <time>2015-08-04T13:06:27Z</time>
      </trkpt>
      <trkpt lat="43.350354" lon="1.793591">
        <ele>243.6</ele>
        <time>2015-08-04T13:06:32Z</time>
      </trkpt>
      <trkpt lat="43.350256" lon="1.793646">
        <ele>243.5</ele>
        <time>2015-08-04T13:06:37Z</time>
      </trkpt>
      <trkpt lat="43.350154" lon="1.793687">
        <ele>244.3</ele>
        <time>2015-08-04T13:06:42Z</time>
      </trkpt>
      <trkpt lat="43.350054" lon="1.793738">
        <ele>244.2</ele>
        <time>2015-08-04T13:06:47Z</time>
      </trkpt>
      <trkpt lat="43.349975" lon="1.793801">
        <ele>244.0</ele>
        <time>2015-08-04T13:06:51Z</time>
      </trkpt>
      <trkpt lat="43.349895" lon="1.793890">
        <ele>243.8</ele>
        <time>2015-08-04T13:06:55Z</time>
      </trkpt>
      <trkpt lat="43.349821" lon="1.793996">
        <ele>244.3</ele>
        <time>2015-08-04T13:06:59Z</time>
      </trkpt>
      <trkpt lat="43.349763" lon="1.794091">
        <ele>245.0</ele>
        <time>2015-08-04T13:07:03Z</time>
      </trkpt>
      <trkpt lat="43.349699" lon="1.794209">
        <ele>246.6</ele>
        <time>2015-08-04T13:07:08Z</time>
      </trkpt>
      <trkpt lat="43.349645" lon="1.794334">
        <ele>249.6</ele>
        <time>2015-08-04T13:07:13Z</time>
      </trkpt>
      <trkpt lat="43.349593" lon="1.794437">
        <ele>250.2</ele>
        <time>2015-08-04T13:07:17Z</time>
      </trkpt>
      <trkpt lat="43.349549" lon="1.794562">
        <ele>251.6</ele>
        <time>2015-08-04T13:07:22Z</time>
      </trkpt>
      <trkpt lat="43.349494" lon="1.794691">
        <ele>252.9</ele>
        <time>2015-08-04T13:07:28Z</time>
      </trkpt>
      <trkpt lat="43.349449" lon="1.794804">
        <ele>254.2</ele>
        <time>2015-08-04T13:07:33Z</time>
      </trkpt>
      <trkpt lat="43.349389" lon="1.794917">
        <ele>254.6</ele>
        <time>2015-08-04T13:07:38Z</time>
      </trkpt>
      <trkpt lat="43.349333" lon="1.795024">
        <ele>256.3</ele>
        <time>2015-08-04T13:07:43Z</time>
      </trkpt>
      <trkpt lat="43.349264" lon="1.795147">
        <ele>257.3</ele>
        <time>2015-08-04T13:07:48Z</time>
      </trkpt>
      <trkpt lat="43.349203" lon="1.795252">
        <ele>256.7</ele>
        <time>2015-08-04T13:07:53Z</time>
      </trkpt>
      <trkpt lat="43.349146" lon="1.795354">
        <ele>258.5</ele>
        <time>2015-08-04T13:07:58Z</time>
      </trkpt>
      <trkpt lat="43.349081" lon="1.795473">
        <ele>259.5</ele>
        <time>2015-08-04T13:08:04Z</time>
      </trkpt>
      <trkpt lat="43.349018" lon="1.795570">
        <ele>260.3</ele>
        <time>2015-08-04T13:08:09Z</time>
      </trkpt>
      <trkpt lat="43.348961" lon="1.795662">
        <ele>261.1</ele>
        <time>2015-08-04T13:08:14Z</time>
      </trkpt>
      <trkpt lat="43.348895" lon="1.795767">
        <ele>262.1</ele>
        <time>2015-08-04T13:08:19Z</time>
      </trkpt>
      <trkpt lat="43.348834" lon="1.795868">
        <ele>263.1</ele>
        <time>2015-08-04T13:08:24Z</time>
      </trkpt>
      <trkpt lat="43.348769" lon="1.795967">
        <ele>263.1</ele>
        <time>2015-08-04T13:08:29Z</time>
      </trkpt>
      <trkpt lat="43.348710" lon="1.796059">
        <ele>262.3</ele>
        <time>2015-08-04T13:08:34Z</time>
      </trkpt>
      <trkpt lat="43.348685" lon="1.796065">
        <ele>261.3</ele>
        <time>2015-08-04T13:08:46Z</time>
      </trkpt>
      <trkpt lat="43.348663" lon="1.796064">
        <ele>259.7</ele>
        <time>2015-08-04T13:09:27Z</time>
      </trkpt>
      <trkpt lat="43.348654" lon="1.796066">
        <ele>258.5</ele>
        <time>2015-08-04T13:10:34Z</time>
      </trkpt>
      <trkpt lat="43.348608" lon="1.796171">
        <ele>258.0</ele>
        <time>2015-08-04T13:11:15Z</time>
      </trkpt>
      <trkpt lat="43.348545" lon="1.796258">
        <ele>257.7</ele>
        <time>2015-08-04T13:11:19Z</time>
      </trkpt>
      <trkpt lat="43.348480" lon="1.796389">
        <ele>257.6</ele>
        <time>2015-08-04T13:11:23Z</time>
      </trkpt>
      <trkpt lat="43.348401" lon="1.796500">
        <ele>258.1</ele>
        <time>2015-08-04T13:11:26Z</time>
      </trkpt>
      <trkpt lat="43.348313" lon="1.796631">
        <ele>258.5</ele>
        <time>2015-08-04T13:11:29Z</time>
      </trkpt>
      <trkpt lat="43.348252" lon="1.796726">
        <ele>258.5</ele>
        <time>2015-08-04T13:11:31Z</time>
      </trkpt>
      <trkpt lat="43.348191" lon="1.796824">
        <ele>258.6</ele>
        <time>2015-08-04T13:11:33Z</time>
      </trkpt>
      <trkpt lat="43.348138" lon="1.796927">
        <ele>258.7</ele>
        <time>2015-08-04T13:11:35Z</time>
      </trkpt>
      <trkpt lat="43.348065" lon="1.797068">
        <ele>258.7</ele>
        <time>2015-08-04T13:11:38Z</time>
      </trkpt>
      <trkpt lat="43.348013" lon="1.797178">
        <ele>259.4</ele>
        <time>2015-08-04T13:11:41Z</time>
      </trkpt>
      <trkpt lat="43.347965" lon="1.797289">
        <ele>258.8</ele>
        <time>2015-08-04T13:11:45Z</time>
      </trkpt>
      <trkpt lat="43.347908" lon="1.797413">
        <ele>258.7</ele>
        <time>2015-08-04T13:11:50Z</time>
      </trkpt>
      <trkpt lat="43.347856" lon="1.797524">
        <ele>258.9</ele>
        <time>2015-08-04T13:11:55Z</time>
      </trkpt>
      <trkpt lat="43.347809" lon="1.797651">
        <ele>258.8</ele>
        <time>2015-08-04T13:12:00Z</time>
      </trkpt>
      <trkpt lat="43.347762" lon="1.797768">
        <ele>259.4</ele>
        <time>2015-08-04T13:12:05Z</time>
      </trkpt>
      <trkpt lat="43.347727" lon="1.797892">
        <ele>260.4</ele>
        <time>2015-08-04T13:12:10Z</time>
      </trkpt>
      <trkpt lat="43.347692" lon="1.798016">
        <ele>261.8</ele>
        <time>2015-08-04T13:12:16Z</time>
      </trkpt>
      <trkpt lat="43.347647" lon="1.798144">
        <ele>263.2</ele>
        <time>2015-08-04T13:12:22Z</time>
      </trkpt>
      <trkpt lat="43.347600" lon="1.798283">
        <ele>264.9</ele>
        <time>2015-08-04T13:12:27Z</time>
      </trkpt>
      <trkpt lat="43.347566" lon="1.798396">
        <ele>266.0</ele>
        <time>2015-08-04T13:12:31Z</time>
      </trkpt>
      <trkpt lat="43.347535" lon="1.798513">
        <ele>265.7</ele>
        <time>2015-08-04T13:12:35Z</time>
      </trkpt>
      <trkpt lat="43.347492" lon="1.798648">
        <ele>267.1</ele>
        <time>2015-08-04T13:12:40Z</time>
      </trkpt>
      <trkpt lat="43.347443" lon="1.798794">
        <ele>269.7</ele>
        <time>2015-08-04T13:12:45Z</time>
      </trkpt>
      <trkpt lat="43.347359" lon="1.798919">
        <ele>271.3</ele>
        <time>2015-08-04T13:12:49Z</time>
      </trkpt>
      <trkpt lat="43.347285" lon="1.799050">
        <ele>272.4</ele>
        <time>2015-08-04T13:12:54Z</time>
      </trkpt>
      <trkpt lat="43.347225" lon="1.799160">
        <ele>273.4</ele>
        <time>2015-08-04T13:12:58Z</time>
      </trkpt>
      <trkpt lat="43.347165" lon="1.799294">
        <ele>276.6</ele>
        <time>2015-08-04T13:13:03Z</time>
      </trkpt>
      <trkpt lat="43.347097" lon="1.799407">
        <ele>276.5</ele>
        <time>2015-08-04T13:13:08Z</time>
      </trkpt>
      <trkpt lat="43.347030" lon="1.799525">
        <ele>276.6</ele>
        <time>2015-08-04T13:13:13Z</time>
      </trkpt>
      <trkpt lat="43.346938" lon="1.799639">
        <ele>277.0</ele>
        <time>2015-08-04T13:13:18Z</time>
      </trkpt>
      <trkpt lat="43.346852" lon="1.799740">
        <ele>276.9</ele>
        <time>2015-08-04T13:13:23Z</time>
      </trkpt>
      <trkpt lat="43.346781" lon="1.799813">
        <ele>275.8</ele>
        <time>2015-08-04T13:13:28Z</time>
      </trkpt>
      <trkpt lat="43.346686" lon="1.799893">
        <ele>276.0</ele>
        <time>2015-08-04T13:13:34Z</time>
      </trkpt>
      <trkpt lat="43.346608" lon="1.799978">
        <ele>276.9</ele>
        <time>2015-08-04T13:13:40Z</time>
      </trkpt>
      <trkpt lat="43.346507" lon="1.800042">
        <ele>277.0</ele>
        <time>2015-08-04T13:13:46Z</time>
      </trkpt>
      <trkpt lat="43.346408" lon="1.800131">
        <ele>276.9</ele>
        <time>2015-08-04T13:13:51Z</time>
      </trkpt>
      <trkpt lat="43.346316" lon="1.800218">
        <ele>276.1</ele>
        <time>2015-08-04T13:13:55Z</time>
      </trkpt>
      <trkpt lat="43.346221" lon="1.800322">
        <ele>275.3</ele>
        <time>2015-08-04T13:13:59Z</time>
      </trkpt>
      <trkpt lat="43.346134" lon="1.800414">
        <ele>274.9</ele>
        <time>2015-08-04T13:14:03Z</time>
      </trkpt>
      <trkpt lat="43.346049" lon="1.800522">
        <ele>274.5</ele>
        <time>2015-08-04T13:14:07Z</time>
      </trkpt>
      <trkpt lat="43.345972" lon="1.800626">
        <ele>272.8</ele>
        <time>2015-08-04T13:14:11Z</time>
      </trkpt>
      <trkpt lat="43.345904" lon="1.800749">
        <ele>271.0</ele>
        <time>2015-08-04T13:14:15Z</time>
      </trkpt>
      <trkpt lat="43.345850" lon="1.800867">
        <ele>270.8</ele>
        <time>2015-08-04T13:14:18Z</time>
      </trkpt>
      <trkpt lat="43.345789" lon="1.801000">
        <ele>269.9</ele>
        <time>2015-08-04T13:14:21Z</time>
      </trkpt>
      <trkpt lat="43.345721" lon="1.801144">
        <ele>269.5</ele>
        <time>2015-08-04T13:14:24Z</time>
      </trkpt>
      <trkpt lat="43.345672" lon="1.801245">
        <ele>268.9</ele>
        <time>2015-08-04T13:14:26Z</time>
      </trkpt>
      <trkpt lat="43.345589" lon="1.801410">
        <ele>268.4</ele>
        <time>2015-08-04T13:14:29Z</time>
      </trkpt>
      <trkpt lat="43.345531" lon="1.801522">
        <ele>267.5</ele>
        <time>2015-08-04T13:14:31Z</time>
      </trkpt>
      <trkpt lat="43.345469" lon="1.801638">
        <ele>267.4</ele>
        <time>2015-08-04T13:14:33Z</time>
      </trkpt>
      <trkpt lat="43.345416" lon="1.801744">
        <ele>266.9</ele>
        <time>2015-08-04T13:14:35Z</time>
      </trkpt>
      <trkpt lat="43.345339" lon="1.801889">
        <ele>267.4</ele>
        <time>2015-08-04T13:14:38Z</time>
      </trkpt>
      <trkpt lat="43.345262" lon="1.802034">
        <ele>267.6</ele>
        <time>2015-08-04T13:14:41Z</time>
      </trkpt>
      <trkpt lat="43.345181" lon="1.802168">
        <ele>266.9</ele>
        <time>2015-08-04T13:14:44Z</time>
      </trkpt>
      <trkpt lat="43.345091" lon="1.802270">
        <ele>266.6</ele>
        <time>2015-08-04T13:14:47Z</time>
      </trkpt>
      <trkpt lat="43.345002" lon="1.802322">
        <ele>266.5</ele>
        <time>2015-08-04T13:14:50Z</time>
      </trkpt>
      <trkpt lat="43.344909" lon="1.802336">
        <ele>265.4</ele>
        <time>2015-08-04T13:14:53Z</time>
      </trkpt>
      <trkpt lat="43.344811" lon="1.802331">
        <ele>264.8</ele>
        <time>2015-08-04T13:14:56Z</time>
      </trkpt>
      <trkpt lat="43.344715" lon="1.802304">
        <ele>264.1</ele>
        <time>2015-08-04T13:14:59Z</time>
      </trkpt>
      <trkpt lat="43.344623" lon="1.802270">
        <ele>263.7</ele>
        <time>2015-08-04T13:15:02Z</time>
      </trkpt>
      <trkpt lat="43.344532" lon="1.802223">
        <ele>262.8</ele>
        <time>2015-08-04T13:15:05Z</time>
      </trkpt>
      <trkpt lat="43.344492" lon="1.802204">
        <ele>261.9</ele>
        <time>2015-08-04T13:15:13Z</time>
      </trkpt>
      <trkpt lat="43.344488" lon="1.802226">
        <ele>261.2</ele>
        <time>2015-08-04T13:17:11Z</time>
      </trkpt>
      <trkpt lat="43.344381" lon="1.802184">
        <ele>261.4</ele>
        <time>2015-08-04T13:17:25Z</time>
      </trkpt>
      <trkpt lat="43.344291" lon="1.802134">
        <ele>262.0</ele>
        <time>2015-08-04T13:17:29Z</time>
      </trkpt>
      <trkpt lat="43.344207" lon="1.802088">
        <ele>262.4</ele>
        <time>2015-08-04T13:17:33Z</time>
      </trkpt>
      <trkpt lat="43.344120" lon="1.802026">
        <ele>262.8</ele>
        <time>2015-08-04T13:17:37Z</time>
      </trkpt>
      <trkpt lat="43.344027" lon="1.801952">
        <ele>264.0</ele>
        <time>2015-08-04T13:17:41Z</time>
      </trkpt>
      <trkpt lat="43.343924" lon="1.801888">
        <ele>264.4</ele>
        <time>2015-08-04T13:17:45Z</time>
      </trkpt>
      <trkpt lat="43.343833" lon="1.801815">
        <ele>265.8</ele>
        <time>2015-08-04T13:17:49Z</time>
      </trkpt>
      <trkpt lat="43.343749" lon="1.801755">
        <ele>266.7</ele>
        <time>2015-08-04T13:17:53Z</time>
      </trkpt>
      <trkpt lat="43.343665" lon="1.801671">
        <ele>267.1</ele>
        <time>2015-08-04T13:17:58Z</time>
      </trkpt>
      <trkpt lat="43.343578" lon="1.801615">
        <ele>267.5</ele>
        <time>2015-08-04T13:18:03Z</time>
      </trkpt>
      <trkpt lat="43.343499" lon="1.801552">
        <ele>267.9</ele>
        <time>2015-08-04T13:18:08Z</time>
      </trkpt>
      <trkpt lat="43.343402" lon="1.801486">
        <ele>267.0</ele>
        <time>2015-08-04T13:18:13Z</time>
      </trkpt>
      <trkpt lat="43.343311" lon="1.801435">
        <ele>267.0</ele>
        <time>2015-08-04T13:18:17Z</time>
      </trkpt>
      <trkpt lat="43.343226" lon="1.801392">
        <ele>266.2</ele>
        <time>2015-08-04T13:18:20Z</time>
      </trkpt>
      <trkpt lat="43.343133" lon="1.801343">
        <ele>265.8</ele>
        <time>2015-08-04T13:18:23Z</time>
      </trkpt>
      <trkpt lat="43.343028" lon="1.801286">
        <ele>265.1</ele>
        <time>2015-08-04T13:18:26Z</time>
      </trkpt>
      <trkpt lat="43.342933" lon="1.801235">
        <ele>264.4</ele>
        <time>2015-08-04T13:18:29Z</time>
      </trkpt>
      <trkpt lat="43.342844" lon="1.801201">
        <ele>263.9</ele>
        <time>2015-08-04T13:18:32Z</time>
      </trkpt>
      <trkpt lat="43.342733" lon="1.801162">
        <ele>263.0</ele>
        <time>2015-08-04T13:18:35Z</time>
      </trkpt>
      <trkpt lat="43.342607" lon="1.801110">
        <ele>261.7</ele>
        <time>2015-08-04T13:18:38Z</time>
      </trkpt>
      <trkpt lat="43.342519" lon="1.801065">
        <ele>261.2</ele>
        <time>2015-08-04T13:18:40Z</time>
      </trkpt>
      <trkpt lat="43.342434" lon="1.801016">
        <ele>260.7</ele>
        <time>2015-08-04T13:18:42Z</time>
      </trkpt>
      <trkpt lat="43.342343" lon="1.800957">
        <ele>259.6</ele>
        <time>2015-08-04T13:18:44Z</time>
      </trkpt>
      <trkpt lat="43.342263" lon="1.800898">
        <ele>258.6</ele>
        <time>2015-08-04T13:18:46Z</time>
      </trkpt>
      <trkpt lat="43.342168" lon="1.800811">
        <ele>257.9</ele>
        <time>2015-08-04T13:18:49Z</time>
      </trkpt>
      <trkpt lat="43.342094" lon="1.800733">
        <ele>258.3</ele>
        <time>2015-08-04T13:18:52Z</time>
      </trkpt>
      <trkpt lat="43.342004" lon="1.800618">
        <ele>257.1</ele>
        <time>2015-08-04T13:18:56Z</time>
      </trkpt>
      <trkpt lat="43.341942" lon="1.800524">
        <ele>256.3</ele>
        <time>2015-08-04T13:18:59Z</time>
      </trkpt>
      <trkpt lat="43.341873" lon="1.800433">
        <ele>256.2</ele>
        <time>2015-08-04T13:19:04Z</time>
      </trkpt>
      <trkpt lat="43.341836" lon="1.800541">
        <ele>252.6</ele>
        <time>2015-08-04T13:21:06Z</time>
      </trkpt>
      <trkpt lat="43.341801" lon="1.800688">
        <ele>252.6</ele>
        <time>2015-08-04T13:21:10Z</time>
      </trkpt>
      <trkpt lat="43.341765" lon="1.800837">
        <ele>252.7</ele>
        <time>2015-08-04T13:21:14Z</time>
      </trkpt>
      <trkpt lat="43.341736" lon="1.800964">
        <ele>253.2</ele>
        <time>2015-08-04T13:21:17Z</time>
      </trkpt>
      <trkpt lat="43.341707" lon="1.801090">
        <ele>253.6</ele>
        <time>2015-08-04T13:21:20Z</time>
      </trkpt>
      <trkpt lat="43.341673" lon="1.801235">
        <ele>254.3</ele>
        <time>2015-08-04T13:21:23Z</time>
      </trkpt>
      <trkpt lat="43.341644" lon="1.801389">
        <ele>253.3</ele>
        <time>2015-08-04T13:21:26Z</time>
      </trkpt>
      <trkpt lat="43.341620" lon="1.801528">
        <ele>253.2</ele>
        <time>2015-08-04T13:21:29Z</time>
      </trkpt>
      <trkpt lat="43.341589" lon="1.801677">
        <ele>253.3</ele>
        <time>2015-08-04T13:21:33Z</time>
      </trkpt>
      <trkpt lat="43.341551" lon="1.801838">
        <ele>250.9</ele>
        <time>2015-08-04T13:21:37Z</time>
      </trkpt>
      <trkpt lat="43.341513" lon="1.801973">
        <ele>249.6</ele>
        <time>2015-08-04T13:21:39Z</time>
      </trkpt>
      <trkpt lat="43.341473" lon="1.802128">
        <ele>248.8</ele>
        <time>2015-08-04T13:21:41Z</time>
      </trkpt>
      <trkpt lat="43.341433" lon="1.802282">
        <ele>248.0</ele>
        <time>2015-08-04T13:21:43Z</time>
      </trkpt>
      <trkpt lat="43.341401" lon="1.802430">
        <ele>247.2</ele>
        <time>2015-08-04T13:21:45Z</time>
      </trkpt>
      <trkpt lat="43.341368" lon="1.802571">
        <ele>246.7</ele>
        <time>2015-08-04T13:21:47Z</time>
      </trkpt>
      <trkpt lat="43.341333" lon="1.802699">
        <ele>246.7</ele>
        <time>2015-08-04T13:21:49Z</time>
      </trkpt>
      <trkpt lat="43.341288" lon="1.802864">
        <ele>247.1</ele>
        <time>2015-08-04T13:21:52Z</time>
      </trkpt>
      <trkpt lat="43.341246" lon="1.803001">
        <ele>247.2</ele>
        <time>2015-08-04T13:21:55Z</time>
      </trkpt>
      <trkpt lat="43.341215" lon="1.803121">
        <ele>247.0</ele>
        <time>2015-08-04T13:21:58Z</time>
      </trkpt>
      <trkpt lat="43.341179" lon="1.803254">
        <ele>246.8</ele>
        <time>2015-08-04T13:22:01Z</time>
      </trkpt>
      <trkpt lat="43.341146" lon="1.803390">
        <ele>247.1</ele>
        <time>2015-08-04T13:22:04Z</time>
      </trkpt>
      <trkpt lat="43.341118" lon="1.803525">
        <ele>247.0</ele>
        <time>2015-08-04T13:22:07Z</time>
      </trkpt>
      <trkpt lat="43.341100" lon="1.803650">
        <ele>247.1</ele>
        <time>2015-08-04T13:22:10Z</time>
      </trkpt>
      <trkpt lat="43.341074" lon="1.803772">
        <ele>246.5</ele>
        <time>2015-08-04T13:22:13Z</time>
      </trkpt>
      <trkpt lat="43.341034" lon="1.803908">
        <ele>246.5</ele>
        <time>2015-08-04T13:22:16Z</time>
      </trkpt>
      <trkpt lat="43.340998" lon="1.804041">
        <ele>246.1</ele>
        <time>2015-08-04T13:22:19Z</time>
      </trkpt>
      <trkpt lat="43.340968" lon="1.804192">
        <ele>245.4</ele>
        <time>2015-08-04T13:22:22Z</time>
      </trkpt>
      <trkpt lat="43.340940" lon="1.804362">
        <ele>245.4</ele>
        <time>2015-08-04T13:22:25Z</time>
      </trkpt>
      <trkpt lat="43.340910" lon="1.804520">
        <ele>245.5</ele>
        <time>2015-08-04T13:22:28Z</time>
      </trkpt>
      <trkpt lat="43.340873" lon="1.804671">
        <ele>245.4</ele>
        <time>2015-08-04T13:22:31Z</time>
      </trkpt>
      <trkpt lat="43.340845" lon="1.804792">
        <ele>246.2</ele>
        <time>2015-08-04T13:22:34Z</time>
      </trkpt>
      <trkpt lat="43.340835" lon="1.804929">
        <ele>246.8</ele>
        <time>2015-08-04T13:22:38Z</time>
      </trkpt>
      <trkpt lat="43.340830" lon="1.805081">
        <ele>247.0</ele>
        <time>2015-08-04T13:22:42Z</time>
      </trkpt>
      <trkpt lat="43.340823" lon="1.805233">
        <ele>246.3</ele>
        <time>2015-08-04T13:22:46Z</time>
      </trkpt>
      <trkpt lat="43.340804" lon="1.805363">
        <ele>246.5</ele>
        <time>2015-08-04T13:22:49Z</time>
      </trkpt>
      <trkpt lat="43.340786" lon="1.805487">
        <ele>246.6</ele>
        <time>2015-08-04T13:22:52Z</time>
      </trkpt>
      <trkpt lat="43.340760" lon="1.805640">
        <ele>246.0</ele>
        <time>2015-08-04T13:22:56Z</time>
      </trkpt>
      <trkpt lat="43.340739" lon="1.805765">
        <ele>245.5</ele>
        <time>2015-08-04T13:22:59Z</time>
      </trkpt>
      <trkpt lat="43.340734" lon="1.805903">
        <ele>245.2</ele>
        <time>2015-08-04T13:23:02Z</time>
      </trkpt>
      <trkpt lat="43.340734" lon="1.806041">
        <ele>245.3</ele>
        <time>2015-08-04T13:23:05Z</time>
      </trkpt>
      <trkpt lat="43.340740" lon="1.806167">
        <ele>245.0</ele>
        <time>2015-08-04T13:23:08Z</time>
      </trkpt>
      <trkpt lat="43.340762" lon="1.806303">
        <ele>243.3</ele>
        <time>2015-08-04T13:23:12Z</time>
      </trkpt>
      <trkpt lat="43.340785" lon="1.806436">
        <ele>242.4</ele>
        <time>2015-08-04T13:23:16Z</time>
      </trkpt>
      <trkpt lat="43.340811" lon="1.806575">
        <ele>240.9</ele>
        <time>2015-08-04T13:23:20Z</time>
      </trkpt>
      <trkpt lat="43.340836" lon="1.806719">
        <ele>239.7</ele>
        <time>2015-08-04T13:23:24Z</time>
      </trkpt>
      <trkpt lat="43.340857" lon="1.806864">
        <ele>238.5</ele>
        <time>2015-08-04T13:23:28Z</time>
      </trkpt>
      <trkpt lat="43.340880" lon="1.807019">
        <ele>236.7</ele>
        <time>2015-08-04T13:23:32Z</time>
      </trkpt>
      <trkpt lat="43.340899" lon="1.807148">
        <ele>236.2</ele>
        <time>2015-08-04T13:23:35Z</time>
      </trkpt>
      <trkpt lat="43.340920" lon="1.807273">
        <ele>235.8</ele>
        <time>2015-08-04T13:23:38Z</time>
      </trkpt>
      <trkpt lat="43.340957" lon="1.807433">
        <ele>235.3</ele>
        <time>2015-08-04T13:23:42Z</time>
      </trkpt>
      <trkpt lat="43.340980" lon="1.807573">
        <ele>234.7</ele>
        <time>2015-08-04T13:23:46Z</time>
      </trkpt>
      <trkpt lat="43.341019" lon="1.807719">
        <ele>234.0</ele>
        <time>2015-08-04T13:23:50Z</time>
      </trkpt>
      <trkpt lat="43.341048" lon="1.807849">
        <ele>233.4</ele>
        <time>2015-08-04T13:23:53Z</time>
      </trkpt>
      <trkpt lat="43.341071" lon="1.807977">
        <ele>233.1</ele>
        <time>2015-08-04T13:23:56Z</time>
      </trkpt>
      <trkpt lat="43.341098" lon="1.808106">
        <ele>232.3</ele>
        <time>2015-08-04T13:23:59Z</time>
      </trkpt>
      <trkpt lat="43.341129" lon="1.808254">
        <ele>231.4</ele>
        <time>2015-08-04T13:24:02Z</time>
      </trkpt>
      <trkpt lat="43.341151" lon="1.808407">
        <ele>230.9</ele>
        <time>2015-08-04T13:24:05Z</time>
      </trkpt>
      <trkpt lat="43.341179" lon="1.808525">
        <ele>229.6</ele>
        <time>2015-08-04T13:24:08Z</time>
      </trkpt>
      <trkpt lat="43.341232" lon="1.808702">
        <ele>227.7</ele>
        <time>2015-08-04T13:24:12Z</time>
      </trkpt>
      <trkpt lat="43.341281" lon="1.808820">
        <ele>226.9</ele>
        <time>2015-08-04T13:24:15Z</time>
      </trkpt>
      <trkpt lat="43.341332" lon="1.808940">
        <ele>226.4</ele>
        <time>2015-08-04T13:24:19Z</time>
      </trkpt>
      <trkpt lat="43.341381" lon="1.809064">
        <ele>226.4</ele>
        <time>2015-08-04T13:24:23Z</time>
      </trkpt>
      <trkpt lat="43.341423" lon="1.809172">
        <ele>226.3</ele>
        <time>2015-08-04T13:24:26Z</time>
      </trkpt>
      <trkpt lat="43.341437" lon="1.809334">
        <ele>227.1</ele>
        <time>2015-08-04T13:24:30Z</time>
      </trkpt>
      <trkpt lat="43.341427" lon="1.809494">
        <ele>227.3</ele>
        <time>2015-08-04T13:24:34Z</time>
      </trkpt>
      <trkpt lat="43.341416" lon="1.809629">
        <ele>227.1</ele>
        <time>2015-08-04T13:24:37Z</time>
      </trkpt>
      <trkpt lat="43.341416" lon="1.809758">
        <ele>227.2</ele>
        <time>2015-08-04T13:24:40Z</time>
      </trkpt>
      <trkpt lat="43.341430" lon="1.809926">
        <ele>226.8</ele>
        <time>2015-08-04T13:24:44Z</time>
      </trkpt>
      <trkpt lat="43.341443" lon="1.810089">
        <ele>226.7</ele>
        <time>2015-08-04T13:24:48Z</time>
      </trkpt>
      <trkpt lat="43.341464" lon="1.810260">
        <ele>226.8</ele>
        <time>2015-08-04T13:24:52Z</time>
      </trkpt>
      <trkpt lat="43.341474" lon="1.810396">
        <ele>226.7</ele>
        <time>2015-08-04T13:24:55Z</time>
      </trkpt>
      <trkpt lat="43.341469" lon="1.810535">
        <ele>226.3</ele>
        <time>2015-08-04T13:24:58Z</time>
      </trkpt>
      <trkpt lat="43.341456" lon="1.810684">
        <ele>226.0</ele>
        <time>2015-08-04T13:25:01Z</time>
      </trkpt>
      <trkpt lat="43.341444" lon="1.810841">
        <ele>225.7</ele>
        <time>2015-08-04T13:25:04Z</time>
      </trkpt>
      <trkpt lat="43.341431" lon="1.811009">
        <ele>225.4</ele>
        <time>2015-08-04T13:25:07Z</time>
      </trkpt>
      <trkpt lat="43.341420" lon="1.811175">
        <ele>225.0</ele>
        <time>2015-08-04T13:25:10Z</time>
      </trkpt>
      <trkpt lat="43.341414" lon="1.811323">
        <ele>225.0</ele>
        <time>2015-08-04T13:25:13Z</time>
      </trkpt>
      <trkpt lat="43.341431" lon="1.811459">
        <ele>224.6</ele>
        <time>2015-08-04T13:25:17Z</time>
      </trkpt>
      <trkpt lat="43.341488" lon="1.811439">
        <ele>223.5</ele>
        <time>2015-08-04T13:25:24Z</time>
      </trkpt>
      <trkpt lat="43.341462" lon="1.811470">
        <ele>222.3</ele>
        <time>2015-08-04T13:27:40Z</time>
      </trkpt>
      <trkpt lat="43.341394" lon="1.811592">
        <ele>222.0</ele>
        <time>2015-08-04T13:27:44Z</time>
      </trkpt>
      <trkpt lat="43.341336" lon="1.811719">
        <ele>221.7</ele>
        <time>2015-08-04T13:27:48Z</time>
      </trkpt>
      <trkpt lat="43.341325" lon="1.811848">
        <ele>221.0</ele>
        <time>2015-08-04T13:27:52Z</time>
      </trkpt>
      <trkpt lat="43.341337" lon="1.812001">
        <ele>220.5</ele>
        <time>2015-08-04T13:27:56Z</time>
      </trkpt>
      <trkpt lat="43.341367" lon="1.812168">
        <ele>220.1</ele>
        <time>2015-08-04T13:27:59Z</time>
      </trkpt>
      <trkpt lat="43.341390" lon="1.812292">
        <ele>219.8</ele>
        <time>2015-08-04T13:28:01Z</time>
      </trkpt>
      <trkpt lat="43.341408" lon="1.812466">
        <ele>217.9</ele>
        <time>2015-08-04T13:28:04Z</time>
      </trkpt>
      <trkpt lat="43.341405" lon="1.812632">
        <ele>214.4</ele>
        <time>2015-08-04T13:28:07Z</time>
      </trkpt>
      <trkpt lat="43.341368" lon="1.812792">
        <ele>212.5</ele>
        <time>2015-08-04T13:28:10Z</time>
      </trkpt>
      <trkpt lat="43.341327" lon="1.812919">
        <ele>210.6</ele>
        <time>2015-08-04T13:28:13Z</time>
      </trkpt>
      <trkpt lat="43.341317" lon="1.813061">
        <ele>209.1</ele>
        <time>2015-08-04T13:28:18Z</time>
      </trkpt>
      <trkpt lat="43.341405" lon="1.813048">
        <ele>207.6</ele>
        <time>2015-08-04T13:28:22Z</time>
      </trkpt>
      <trkpt lat="43.341496" lon="1.813012">
        <ele>207.4</ele>
        <time>2015-08-04T13:28:25Z</time>
      </trkpt>
      <trkpt lat="43.341602" lon="1.812965">
        <ele>207.1</ele>
        <time>2015-08-04T13:28:28Z</time>
      </trkpt>
      <trkpt lat="43.341706" lon="1.812910">
        <ele>207.8</ele>
        <time>2015-08-04T13:28:31Z</time>
      </trkpt>
      <trkpt lat="43.341808" lon="1.812846">
        <ele>207.4</ele>
        <time>2015-08-04T13:28:34Z</time>
      </trkpt>
      <trkpt lat="43.341901" lon="1.812790">
        <ele>207.4</ele>
        <time>2015-08-04T13:28:37Z</time>
      </trkpt>
      <trkpt lat="43.341988" lon="1.812730">
        <ele>207.1</ele>
        <time>2015-08-04T13:28:40Z</time>
      </trkpt>
      <trkpt lat="43.342071" lon="1.812659">
        <ele>206.8</ele>
        <time>2015-08-04T13:28:43Z</time>
      </trkpt>
      <trkpt lat="43.342155" lon="1.812575">
        <ele>206.3</ele>
        <time>2015-08-04T13:28:46Z</time>
      </trkpt>
      <trkpt lat="43.342240" lon="1.812497">
        <ele>206.7</ele>
        <time>2015-08-04T13:28:49Z</time>
      </trkpt>
      <trkpt lat="43.342321" lon="1.812417">
        <ele>207.1</ele>
        <time>2015-08-04T13:28:52Z</time>
      </trkpt>
      <trkpt lat="43.342404" lon="1.812344">
        <ele>207.3</ele>
        <time>2015-08-04T13:28:55Z</time>
      </trkpt>
      <trkpt lat="43.342479" lon="1.812266">
        <ele>207.1</ele>
        <time>2015-08-04T13:28:58Z</time>
      </trkpt>
      <trkpt lat="43.342578" lon="1.812170">
        <ele>207.0</ele>
        <time>2015-08-04T13:29:02Z</time>
      </trkpt>
      <trkpt lat="43.342660" lon="1.812116">
        <ele>207.2</ele>
        <time>2015-08-04T13:29:06Z</time>
      </trkpt>
      <trkpt lat="43.342736" lon="1.812206">
        <ele>209.7</ele>
        <time>2015-08-04T13:29:13Z</time>
      </trkpt>
      <trkpt lat="43.342811" lon="1.812334">
        <ele>210.8</ele>
        <time>2015-08-04T13:29:18Z</time>
      </trkpt>
      <trkpt lat="43.342865" lon="1.812447">
        <ele>212.2</ele>
        <time>2015-08-04T13:29:23Z</time>
      </trkpt>
      <trkpt lat="43.342907" lon="1.812580">
        <ele>213.1</ele>
        <time>2015-08-04T13:29:29Z</time>
      </trkpt>
      <trkpt lat="43.342975" lon="1.812708">
        <ele>211.9</ele>
        <time>2015-08-04T13:29:33Z</time>
      </trkpt>
      <trkpt lat="43.343051" lon="1.812781">
        <ele>211.5</ele>
        <time>2015-08-04T13:29:38Z</time>
      </trkpt>
      <trkpt lat="43.343155" lon="1.812755">
        <ele>210.8</ele>
        <time>2015-08-04T13:29:44Z</time>
      </trkpt>
      <trkpt lat="43.343258" lon="1.812721">
        <ele>210.3</ele>
        <time>2015-08-04T13:29:48Z</time>
      </trkpt>
      <trkpt lat="43.343374" lon="1.812682">
        <ele>209.6</ele>
        <time>2015-08-04T13:29:52Z</time>
      </trkpt>
      <trkpt lat="43.343496" lon="1.812652">
        <ele>208.6</ele>
        <time>2015-08-04T13:29:56Z</time>
      </trkpt>
      <trkpt lat="43.343611" lon="1.812647">
        <ele>207.8</ele>
        <time>2015-08-04T13:30:00Z</time>
      </trkpt>
      <trkpt lat="43.343744" lon="1.812654">
        <ele>207.1</ele>
        <time>2015-08-04T13:30:04Z</time>
      </trkpt>
      <trkpt lat="43.343835" lon="1.812656">
        <ele>206.8</ele>
        <time>2015-08-04T13:30:07Z</time>
      </trkpt>
      <trkpt lat="43.343955" lon="1.812644">
        <ele>207.8</ele>
        <time>2015-08-04T13:30:12Z</time>
      </trkpt>
      <trkpt lat="43.344045" lon="1.812672">
        <ele>204.6</ele>
        <time>2015-08-04T13:30:16Z</time>
      </trkpt>
      <trkpt lat="43.344123" lon="1.812729">
        <ele>205.5</ele>
        <time>2015-08-04T13:30:20Z</time>
      </trkpt>
      <trkpt lat="43.344177" lon="1.812862">
        <ele>206.6</ele>
        <time>2015-08-04T13:30:24Z</time>
      </trkpt>
      <trkpt lat="43.344210" lon="1.813025">
        <ele>207.1</ele>
        <time>2015-08-04T13:30:28Z</time>
      </trkpt>
      <trkpt lat="43.344235" lon="1.813192">
        <ele>207.5</ele>
        <time>2015-08-04T13:30:31Z</time>
      </trkpt>
      <trkpt lat="43.344271" lon="1.813318">
        <ele>207.9</ele>
        <time>2015-08-04T13:30:33Z</time>
      </trkpt>
      <trkpt lat="43.344317" lon="1.813454">
        <ele>208.2</ele>
        <time>2015-08-04T13:30:35Z</time>
      </trkpt>
      <trkpt lat="43.344370" lon="1.813594">
        <ele>207.9</ele>
        <time>2015-08-04T13:30:37Z</time>
      </trkpt>
      <trkpt lat="43.344427" lon="1.813737">
        <ele>207.1</ele>
        <time>2015-08-04T13:30:39Z</time>
      </trkpt>
      <trkpt lat="43.344487" lon="1.813884">
        <ele>207.0</ele>
        <time>2015-08-04T13:30:41Z</time>
      </trkpt>
      <trkpt lat="43.344548" lon="1.814029">
        <ele>206.8</ele>
        <time>2015-08-04T13:30:43Z</time>
      </trkpt>
      <trkpt lat="43.344607" lon="1.814172">
        <ele>206.4</ele>
        <time>2015-08-04T13:30:45Z</time>
      </trkpt>
      <trkpt lat="43.344666" lon="1.814299">
        <ele>205.7</ele>
        <time>2015-08-04T13:30:47Z</time>
      </trkpt>
      <trkpt lat="43.344743" lon="1.814410">
        <ele>205.4</ele>
        <time>2015-08-04T13:30:49Z</time>
      </trkpt>
      <trkpt lat="43.344831" lon="1.814512">
        <ele>205.1</ele>
        <time>2015-08-04T13:30:51Z</time>
      </trkpt>
      <trkpt lat="43.344920" lon="1.814603">
        <ele>204.9</ele>
        <time>2015-08-04T13:30:53Z</time>
      </trkpt>
      <trkpt lat="43.345006" lon="1.814688">
        <ele>205.1</ele>
        <time>2015-08-04T13:30:55Z</time>
      </trkpt>
      <trkpt lat="43.345090" lon="1.814767">
        <ele>205.3</ele>
        <time>2015-08-04T13:30:57Z</time>
      </trkpt>
      <trkpt lat="43.345175" lon="1.814838">
        <ele>205.4</ele>
        <time>2015-08-04T13:30:59Z</time>
      </trkpt>
      <trkpt lat="43.345259" lon="1.814907">
        <ele>205.2</ele>
        <time>2015-08-04T13:31:01Z</time>
      </trkpt>
      <trkpt lat="43.345337" lon="1.814975">
        <ele>205.7</ele>
        <time>2015-08-04T13:31:03Z</time>
      </trkpt>
      <trkpt lat="43.345445" lon="1.815074">
        <ele>205.9</ele>
        <time>2015-08-04T13:31:06Z</time>
      </trkpt>
      <trkpt lat="43.345548" lon="1.815164">
        <ele>205.7</ele>
        <time>2015-08-04T13:31:09Z</time>
      </trkpt>
      <trkpt lat="43.345647" lon="1.815248">
        <ele>206.1</ele>
        <time>2015-08-04T13:31:12Z</time>
      </trkpt>
      <trkpt lat="43.345747" lon="1.815319">
        <ele>205.9</ele>
        <time>2015-08-04T13:31:15Z</time>
      </trkpt>
      <trkpt lat="43.345847" lon="1.815408">
        <ele>205.6</ele>
        <time>2015-08-04T13:31:18Z</time>
      </trkpt>
      <trkpt lat="43.345954" lon="1.815486">
        <ele>205.2</ele>
        <time>2015-08-04T13:31:21Z</time>
      </trkpt>
      <trkpt lat="43.346044" lon="1.815557">
        <ele>204.7</ele>
        <time>2015-08-04T13:31:24Z</time>
      </trkpt>
      <trkpt lat="43.346132" lon="1.815607">
        <ele>204.5</ele>
        <time>2015-08-04T13:31:27Z</time>
      </trkpt>
      <trkpt lat="43.346224" lon="1.815650">
        <ele>204.0</ele>
        <time>2015-08-04T13:31:30Z</time>
      </trkpt>
      <trkpt lat="43.346317" lon="1.815697">
        <ele>204.0</ele>
        <time>2015-08-04T13:31:33Z</time>
      </trkpt>
      <trkpt lat="43.346421" lon="1.815746">
        <ele>204.2</ele>
        <time>2015-08-04T13:31:37Z</time>
      </trkpt>
      <trkpt lat="43.346532" lon="1.815794">
        <ele>204.4</ele>
        <time>2015-08-04T13:31:41Z</time>
      </trkpt>
      <trkpt lat="43.346619" lon="1.815849">
        <ele>204.6</ele>
        <time>2015-08-04T13:31:44Z</time>
      </trkpt>
      <trkpt lat="43.346718" lon="1.815898">
        <ele>205.0</ele>
        <time>2015-08-04T13:31:47Z</time>
      </trkpt>
      <trkpt lat="43.346822" lon="1.815958">
        <ele>204.5</ele>
        <time>2015-08-04T13:31:50Z</time>
      </trkpt>
      <trkpt lat="43.346928" lon="1.816012">
        <ele>204.1</ele>
        <time>2015-08-04T13:31:53Z</time>
      </trkpt>
      <trkpt lat="43.347034" lon="1.816074">
        <ele>203.9</ele>
        <time>2015-08-04T13:31:56Z</time>
      </trkpt>
      <trkpt lat="43.347142" lon="1.816127">
        <ele>203.8</ele>
        <time>2015-08-04T13:31:59Z</time>
      </trkpt>
      <trkpt lat="43.347251" lon="1.816184">
        <ele>202.9</ele>
        <time>2015-08-04T13:32:02Z</time>
      </trkpt>
      <trkpt lat="43.347365" lon="1.816255">
        <ele>202.8</ele>
        <time>2015-08-04T13:32:05Z</time>
      </trkpt>
      <trkpt lat="43.347496" lon="1.816319">
        <ele>202.0</ele>
        <time>2015-08-04T13:32:08Z</time>
      </trkpt>
      <trkpt lat="43.347591" lon="1.816367">
        <ele>201.6</ele>
        <time>2015-08-04T13:32:10Z</time>
      </trkpt>
      <trkpt lat="43.347692" lon="1.816426">
        <ele>201.2</ele>
        <time>2015-08-04T13:32:12Z</time>
      </trkpt>
      <trkpt lat="43.347791" lon="1.816484">
        <ele>200.6</ele>
        <time>2015-08-04T13:32:14Z</time>
      </trkpt>
      <trkpt lat="43.347892" lon="1.816546">
        <ele>200.1</ele>
        <time>2015-08-04T13:32:16Z</time>
      </trkpt>
      <trkpt lat="43.347997" lon="1.816610">
        <ele>199.6</ele>
        <time>2015-08-04T13:32:18Z</time>
      </trkpt>
      <trkpt lat="43.348111" lon="1.816669">
        <ele>199.1</ele>
        <time>2015-08-04T13:32:20Z</time>
      </trkpt>
      <trkpt lat="43.348211" lon="1.816722">
        <ele>198.2</ele>
        <time>2015-08-04T13:32:22Z</time>
      </trkpt>
      <trkpt lat="43.348307" lon="1.816767">
        <ele>197.6</ele>
        <time>2015-08-04T13:32:27Z</time>
      </trkpt>
      <trkpt lat="43.348403" lon="1.816749">
        <ele>197.7</ele>
        <time>2015-08-04T13:32:32Z</time>
      </trkpt>
      <trkpt lat="43.348507" lon="1.816729">
        <ele>197.8</ele>
        <time>2015-08-04T13:32:35Z</time>
      </trkpt>
      <trkpt lat="43.348599" lon="1.816712">
        <ele>197.0</ele>
        <time>2015-08-04T13:32:37Z</time>
      </trkpt>
      <trkpt lat="43.348708" lon="1.816690">
        <ele>196.1</ele>
        <time>2015-08-04T13:32:39Z</time>
      </trkpt>
      <trkpt lat="43.348834" lon="1.816660">
        <ele>195.2</ele>
        <time>2015-08-04T13:32:41Z</time>
      </trkpt>
      <trkpt lat="43.348963" lon="1.816649">
        <ele>194.7</ele>
        <time>2015-08-04T13:32:43Z</time>
      </trkpt>
      <trkpt lat="43.349081" lon="1.816667">
        <ele>194.3</ele>
        <time>2015-08-04T13:32:45Z</time>
      </trkpt>
      <trkpt lat="43.349193" lon="1.816697">
        <ele>194.5</ele>
        <time>2015-08-04T13:32:47Z</time>
      </trkpt>
      <trkpt lat="43.349301" lon="1.816727">
        <ele>194.6</ele>
        <time>2015-08-04T13:32:49Z</time>
      </trkpt>
      <trkpt lat="43.349419" lon="1.816758">
        <ele>194.4</ele>
        <time>2015-08-04T13:32:51Z</time>
      </trkpt>
      <trkpt lat="43.349536" lon="1.816800">
        <ele>194.7</ele>
        <time>2015-08-04T13:32:53Z</time>
      </trkpt>
      <trkpt lat="43.349649" lon="1.816838">
        <ele>194.2</ele>
        <time>2015-08-04T13:32:55Z</time>
      </trkpt>
      <trkpt lat="43.349754" lon="1.816872">
        <ele>194.0</ele>
        <time>2015-08-04T13:32:57Z</time>
      </trkpt>
      <trkpt lat="43.349843" lon="1.816928">
        <ele>193.8</ele>
        <time>2015-08-04T13:33:00Z</time>
      </trkpt>
      <trkpt lat="43.349838" lon="1.817086">
        <ele>193.5</ele>
        <time>2015-08-04T13:33:04Z</time>
      </trkpt>
      <trkpt lat="43.349762" lon="1.817206">
        <ele>193.1</ele>
        <time>2015-08-04T13:33:07Z</time>
      </trkpt>
      <trkpt lat="43.349673" lon="1.817339">
        <ele>192.3</ele>
        <time>2015-08-04T13:33:10Z</time>
      </trkpt>
      <trkpt lat="43.349597" lon="1.817457">
        <ele>191.7</ele>
        <time>2015-08-04T13:33:13Z</time>
      </trkpt>
      <trkpt lat="43.349518" lon="1.817571">
        <ele>191.0</ele>
        <time>2015-08-04T13:33:16Z</time>
      </trkpt>
      <trkpt lat="43.349438" lon="1.817700">
        <ele>191.5</ele>
        <time>2015-08-04T13:33:19Z</time>
      </trkpt>
      <trkpt lat="43.349372" lon="1.817783">
        <ele>191.4</ele>
        <time>2015-08-04T13:33:21Z</time>
      </trkpt>
      <trkpt lat="43.349304" lon="1.817884">
        <ele>191.0</ele>
        <time>2015-08-04T13:33:23Z</time>
      </trkpt>
      <trkpt lat="43.349230" lon="1.817993">
        <ele>190.7</ele>
        <time>2015-08-04T13:33:25Z</time>
      </trkpt>
      <trkpt lat="43.349152" lon="1.818105">
        <ele>190.6</ele>
        <time>2015-08-04T13:33:27Z</time>
      </trkpt>
      <trkpt lat="43.349074" lon="1.818224">
        <ele>190.9</ele>
        <time>2015-08-04T13:33:29Z</time>
      </trkpt>
      <trkpt lat="43.348997" lon="1.818344">
        <ele>191.1</ele>
        <time>2015-08-04T13:33:31Z</time>
      </trkpt>
      <trkpt lat="43.348918" lon="1.818458">
        <ele>191.8</ele>
        <time>2015-08-04T13:33:33Z</time>
      </trkpt>
      <trkpt lat="43.348844" lon="1.818568">
        <ele>192.4</ele>
        <time>2015-08-04T13:33:35Z</time>
      </trkpt>
      <trkpt lat="43.348767" lon="1.818676">
        <ele>192.3</ele>
        <time>2015-08-04T13:33:37Z</time>
      </trkpt>
      <trkpt lat="43.348692" lon="1.818783">
        <ele>191.9</ele>
        <time>2015-08-04T13:33:39Z</time>
      </trkpt>
      <trkpt lat="43.348621" lon="1.818885">
        <ele>191.8</ele>
        <time>2015-08-04T13:33:41Z</time>
      </trkpt>
      <trkpt lat="43.348572" lon="1.818990">
        <ele>193.0</ele>
        <time>2015-08-04T13:33:43Z</time>
      </trkpt>
      <trkpt lat="43.348579" lon="1.819109">
        <ele>191.2</ele>
        <time>2015-08-04T13:34:22Z</time>
      </trkpt>
      <trkpt lat="43.348644" lon="1.819132">
        <ele>190.5</ele>
        <time>2015-08-04T13:34:28Z</time>
      </trkpt>
      <trkpt lat="43.348701" lon="1.819241">
        <ele>191.4</ele>
        <time>2015-08-04T13:34:34Z</time>
      </trkpt>
      <trkpt lat="43.348694" lon="1.819332">
        <ele>191.4</ele>
        <time>2015-08-04T13:34:40Z</time>
      </trkpt>
      <trkpt lat="43.348726" lon="1.819363">
        <ele>189.1</ele>
        <time>2015-08-04T13:36:31Z</time>
      </trkpt>
      <trkpt lat="43.348746" lon="1.819365">
        <ele>188.1</ele>
        <time>2015-08-04T13:38:10Z</time>
      </trkpt>
      <trkpt lat="43.348821" lon="1.819273">
        <ele>188.2</ele>
        <time>2015-08-04T13:38:15Z</time>
      </trkpt>
      <trkpt lat="43.348902" lon="1.819181">
        <ele>188.5</ele>
        <time>2015-08-04T13:38:19Z</time>
      </trkpt>
      <trkpt lat="43.348992" lon="1.819085">
        <ele>188.9</ele>
        <time>2015-08-04T13:38:22Z</time>
      </trkpt>
      <trkpt lat="43.349088" lon="1.818971">
        <ele>189.1</ele>
        <time>2015-08-04T13:38:25Z</time>
      </trkpt>
      <trkpt lat="43.349188" lon="1.818868">
        <ele>189.8</ele>
        <time>2015-08-04T13:38:28Z</time>
      </trkpt>
      <trkpt lat="43.349288" lon="1.818761">
        <ele>190.1</ele>
        <time>2015-08-04T13:38:31Z</time>
      </trkpt>
      <trkpt lat="43.349386" lon="1.818652">
        <ele>190.2</ele>
        <time>2015-08-04T13:38:34Z</time>
      </trkpt>
      <trkpt lat="43.349481" lon="1.818549">
        <ele>190.1</ele>
        <time>2015-08-04T13:38:37Z</time>
      </trkpt>
      <trkpt lat="43.349586" lon="1.818436">
        <ele>189.7</ele>
        <time>2015-08-04T13:38:40Z</time>
      </trkpt>
      <trkpt lat="43.349693" lon="1.818343">
        <ele>189.6</ele>
        <time>2015-08-04T13:38:43Z</time>
      </trkpt>
      <trkpt lat="43.349814" lon="1.818287">
        <ele>189.9</ele>
        <time>2015-08-04T13:38:46Z</time>
      </trkpt>
      <trkpt lat="43.349948" lon="1.818256">
        <ele>190.7</ele>
        <time>2015-08-04T13:38:49Z</time>
      </trkpt>
      <trkpt lat="43.350079" lon="1.818256">
        <ele>191.4</ele>
        <time>2015-08-04T13:38:52Z</time>
      </trkpt>
      <trkpt lat="43.350207" lon="1.818275">
        <ele>192.4</ele>
        <time>2015-08-04T13:38:55Z</time>
      </trkpt>
      <trkpt lat="43.350327" lon="1.818297">
        <ele>193.8</ele>
        <time>2015-08-04T13:38:58Z</time>
      </trkpt>
      <trkpt lat="43.350448" lon="1.818316">
        <ele>194.6</ele>
        <time>2015-08-04T13:39:01Z</time>
      </trkpt>
      <trkpt lat="43.350564" lon="1.818341">
        <ele>195.3</ele>
        <time>2015-08-04T13:39:04Z</time>
      </trkpt>
      <trkpt lat="43.350679" lon="1.818367">
        <ele>193.5</ele>
        <time>2015-08-04T13:39:07Z</time>
      </trkpt>
      <trkpt lat="43.350792" lon="1.818386">
        <ele>192.7</ele>
        <time>2015-08-04T13:39:10Z</time>
      </trkpt>
      <trkpt lat="43.350899" lon="1.818406">
        <ele>192.5</ele>
        <time>2015-08-04T13:39:13Z</time>
      </trkpt>
      <trkpt lat="43.350953" lon="1.818467">
        <ele>192.6</ele>
        <time>2015-08-04T13:39:25Z</time>
      </trkpt>
      <trkpt lat="43.351119" lon="1.818515">
        <ele>192.3</ele>
        <time>2015-08-04T13:39:43Z</time>
      </trkpt>
      <trkpt lat="43.351257" lon="1.818537">
        <ele>192.5</ele>
        <time>2015-08-04T13:39:47Z</time>
      </trkpt>
      <trkpt lat="43.351368" lon="1.818551">
        <ele>192.2</ele>
        <time>2015-08-04T13:39:50Z</time>
      </trkpt>
      <trkpt lat="43.351486" lon="1.818580">
        <ele>190.4</ele>
        <time>2015-08-04T13:39:53Z</time>
      </trkpt>
      <trkpt lat="43.351604" lon="1.818602">
        <ele>188.9</ele>
        <time>2015-08-04T13:39:56Z</time>
      </trkpt>
      <trkpt lat="43.351715" lon="1.818620">
        <ele>188.6</ele>
        <time>2015-08-04T13:39:59Z</time>
      </trkpt>
      <trkpt lat="43.351833" lon="1.818635">
        <ele>188.5</ele>
        <time>2015-08-04T13:40:02Z</time>
      </trkpt>
      <trkpt lat="43.351949" lon="1.818653">
        <ele>188.4</ele>
        <time>2015-08-04T13:40:05Z</time>
      </trkpt>
      <trkpt lat="43.352056" lon="1.818677">
        <ele>188.2</ele>
        <time>2015-08-04T13:40:08Z</time>
      </trkpt>
      <trkpt lat="43.352168" lon="1.818698">
        <ele>189.1</ele>
        <time>2015-08-04T13:40:11Z</time>
      </trkpt>
      <trkpt lat="43.352284" lon="1.818710">
        <ele>188.9</ele>
        <time>2015-08-04T13:40:14Z</time>
      </trkpt>
      <trkpt lat="43.352390" lon="1.818723">
        <ele>188.8</ele>
        <time>2015-08-04T13:40:17Z</time>
      </trkpt>
      <trkpt lat="43.352514" lon="1.818749">
        <ele>189.8</ele>
        <time>2015-08-04T13:40:20Z</time>
      </trkpt>
      <trkpt lat="43.352632" lon="1.818761">
        <ele>190.5</ele>
        <time>2015-08-04T13:40:23Z</time>
      </trkpt>
      <trkpt lat="43.352744" lon="1.818771">
        <ele>191.7</ele>
        <time>2015-08-04T13:40:26Z</time>
      </trkpt>
      <trkpt lat="43.352862" lon="1.818781">
        <ele>193.6</ele>
        <time>2015-08-04T13:40:29Z</time>
      </trkpt>
      <trkpt lat="43.352987" lon="1.818805">
        <ele>193.8</ele>
        <time>2015-08-04T13:40:32Z</time>
      </trkpt>
      <trkpt lat="43.353117" lon="1.818822">
        <ele>193.3</ele>
        <time>2015-08-04T13:40:35Z</time>
      </trkpt>
      <trkpt lat="43.353240" lon="1.818846">
        <ele>193.6</ele>
        <time>2015-08-04T13:40:38Z</time>
      </trkpt>
      <trkpt lat="43.353362" lon="1.818875">
        <ele>193.8</ele>
        <time>2015-08-04T13:40:41Z</time>
      </trkpt>
      <trkpt lat="43.353499" lon="1.818905">
        <ele>194.4</ele>
        <time>2015-08-04T13:40:44Z</time>
      </trkpt>
      <trkpt lat="43.353619" lon="1.818928">
        <ele>194.7</ele>
        <time>2015-08-04T13:40:47Z</time>
      </trkpt>
      <trkpt lat="43.353736" lon="1.818965">
        <ele>195.3</ele>
        <time>2015-08-04T13:40:52Z</time>
      </trkpt>
      <trkpt lat="43.353866" lon="1.818980">
        <ele>191.9</ele>
        <time>2015-08-04T13:40:58Z</time>
      </trkpt>
      <trkpt lat="43.354004" lon="1.819009">
        <ele>191.6</ele>
        <time>2015-08-04T13:41:02Z</time>
      </trkpt>
      <trkpt lat="43.354124" lon="1.819030">
        <ele>191.2</ele>
        <time>2015-08-04T13:41:05Z</time>
      </trkpt>
      <trkpt lat="43.354214" lon="1.819030">
        <ele>191.1</ele>
        <time>2015-08-04T13:41:08Z</time>
      </trkpt>
      <trkpt lat="43.354310" lon="1.818995">
        <ele>191.3</ele>
        <time>2015-08-04T13:41:12Z</time>
      </trkpt>
      <trkpt lat="43.354402" lon="1.818940">
        <ele>193.4</ele>
        <time>2015-08-04T13:41:17Z</time>
      </trkpt>
      <trkpt lat="43.354488" lon="1.818860">
        <ele>192.9</ele>
        <time>2015-08-04T13:41:24Z</time>
      </trkpt>
      <trkpt lat="43.354572" lon="1.818827">
        <ele>197.9</ele>
        <time>2015-08-04T13:41:51Z</time>
      </trkpt>
      <trkpt lat="43.354654" lon="1.818717">
        <ele>197.4</ele>
        <time>2015-08-04T13:42:13Z</time>
      </trkpt>
      <trkpt lat="43.354733" lon="1.818627">
        <ele>196.4</ele>
        <time>2015-08-04T13:42:18Z</time>
      </trkpt>
      <trkpt lat="43.354808" lon="1.818549">
        <ele>195.8</ele>
        <time>2015-08-04T13:42:22Z</time>
      </trkpt>
      <trkpt lat="43.354886" lon="1.818442">
        <ele>194.9</ele>
        <time>2015-08-04T13:42:28Z</time>
      </trkpt>
      <trkpt lat="43.354972" lon="1.818372">
        <ele>193.5</ele>
        <time>2015-08-04T13:42:33Z</time>
      </trkpt>
      <trkpt lat="43.355061" lon="1.818271">
        <ele>193.1</ele>
        <time>2015-08-04T13:42:37Z</time>
      </trkpt>
      <trkpt lat="43.355197" lon="1.818155">
        <ele>190.3</ele>
        <time>2015-08-04T13:42:53Z</time>
      </trkpt>
      <trkpt lat="43.355278" lon="1.818191">
        <ele>189.6</ele>
        <time>2015-08-04T13:44:15Z</time>
      </trkpt>
      <trkpt lat="43.355347" lon="1.818294">
        <ele>189.1</ele>
        <time>2015-08-04T13:44:25Z</time>
      </trkpt>
      <trkpt lat="43.355421" lon="1.818368">
        <ele>188.2</ele>
        <time>2015-08-04T13:44:30Z</time>
      </trkpt>
      <trkpt lat="43.355495" lon="1.818344">
        <ele>187.6</ele>
        <time>2015-08-04T13:44:37Z</time>
      </trkpt>
      <trkpt lat="43.355585" lon="1.818259">
        <ele>186.9</ele>
        <time>2015-08-04T13:44:42Z</time>
      </trkpt>
      <trkpt lat="43.355689" lon="1.818226">
        <ele>185.5</ele>
        <time>2015-08-04T13:44:47Z</time>
      </trkpt>
      <trkpt lat="43.355762" lon="1.818140">
        <ele>184.3</ele>
        <time>2015-08-04T13:44:51Z</time>
      </trkpt>
      <trkpt lat="43.355825" lon="1.818026">
        <ele>183.8</ele>
        <time>2015-08-04T13:44:55Z</time>
      </trkpt>
      <trkpt lat="43.355885" lon="1.817917">
        <ele>183.8</ele>
        <time>2015-08-04T13:44:59Z</time>
      </trkpt>
      <trkpt lat="43.355942" lon="1.817806">
        <ele>185.4</ele>
        <time>2015-08-04T13:45:04Z</time>
      </trkpt>
      <trkpt lat="43.355941" lon="1.817704">
        <ele>184.5</ele>
        <time>2015-08-04T13:45:21Z</time>
      </trkpt>
      <trkpt lat="43.356024" lon="1.817551">
        <ele>186.1</ele>
        <time>2015-08-04T13:47:19Z</time>
      </trkpt>
      <trkpt lat="43.356117" lon="1.817435">
        <ele>185.1</ele>
        <time>2015-08-04T13:47:24Z</time>
      </trkpt>
      <trkpt lat="43.356188" lon="1.817323">
        <ele>184.2</ele>
        <time>2015-08-04T13:47:28Z</time>
      </trkpt>
      <trkpt lat="43.356260" lon="1.817215">
        <ele>184.2</ele>
        <time>2015-08-04T13:47:33Z</time>
      </trkpt>
      <trkpt lat="43.356362" lon="1.817064">
        <ele>183.3</ele>
        <time>2015-08-04T13:47:38Z</time>
      </trkpt>
      <trkpt lat="43.356449" lon="1.816939">
        <ele>183.0</ele>
        <time>2015-08-04T13:47:43Z</time>
      </trkpt>
      <trkpt lat="43.356525" lon="1.816780">
        <ele>183.2</ele>
        <time>2015-08-04T13:47:47Z</time>
      </trkpt>
      <trkpt lat="43.356587" lon="1.816612">
        <ele>183.9</ele>
        <time>2015-08-04T13:47:51Z</time>
      </trkpt>
      <trkpt lat="43.356640" lon="1.816465">
        <ele>184.4</ele>
        <time>2015-08-04T13:47:54Z</time>
      </trkpt>
      <trkpt lat="43.356712" lon="1.816304">
        <ele>185.8</ele>
        <time>2015-08-04T13:47:58Z</time>
      </trkpt>
      <trkpt lat="43.356773" lon="1.816177">
        <ele>186.7</ele>
        <time>2015-08-04T13:48:02Z</time>
      </trkpt>
      <trkpt lat="43.356849" lon="1.816014">
        <ele>185.8</ele>
        <time>2015-08-04T13:48:07Z</time>
      </trkpt>
      <trkpt lat="43.356907" lon="1.815876">
        <ele>186.2</ele>
        <time>2015-08-04T13:48:12Z</time>
      </trkpt>
      <trkpt lat="43.356951" lon="1.815753">
        <ele>182.3</ele>
        <time>2015-08-04T13:48:33Z</time>
      </trkpt>
      <trkpt lat="43.357033" lon="1.815585">
        <ele>181.1</ele>
        <time>2015-08-04T13:48:41Z</time>
      </trkpt>
      <trkpt lat="43.357085" lon="1.815446">
        <ele>179.8</ele>
        <time>2015-08-04T13:48:46Z</time>
      </trkpt>
      <trkpt lat="43.357126" lon="1.815303">
        <ele>178.6</ele>
        <time>2015-08-04T13:48:50Z</time>
      </trkpt>
      <trkpt lat="43.357144" lon="1.815298">
        <ele>181.6</ele>
        <time>2015-08-04T13:49:21Z</time>
      </trkpt>
      <trkpt lat="43.357165" lon="1.815200">
        <ele>182.7</ele>
        <time>2015-08-04T13:50:36Z</time>
      </trkpt>
      <trkpt lat="43.357211" lon="1.815053">
        <ele>182.4</ele>
        <time>2015-08-04T13:50:43Z</time>
      </trkpt>
      <trkpt lat="43.357249" lon="1.814894">
        <ele>182.4</ele>
        <time>2015-08-04T13:50:47Z</time>
      </trkpt>
      <trkpt lat="43.357287" lon="1.814760">
        <ele>181.6</ele>
        <time>2015-08-04T13:50:50Z</time>
      </trkpt>
      <trkpt lat="43.357326" lon="1.814617">
        <ele>181.6</ele>
        <time>2015-08-04T13:50:53Z</time>
      </trkpt>
      <trkpt lat="43.357363" lon="1.814480">
        <ele>181.2</ele>
        <time>2015-08-04T13:50:57Z</time>
      </trkpt>
      <trkpt lat="43.357428" lon="1.814341">
        <ele>181.6</ele>
        <time>2015-08-04T13:51:01Z</time>
      </trkpt>
      <trkpt lat="43.357492" lon="1.814182">
        <ele>181.4</ele>
        <time>2015-08-04T13:51:06Z</time>
      </trkpt>
      <trkpt lat="43.357542" lon="1.814044">
        <ele>181.2</ele>
        <time>2015-08-04T13:51:10Z</time>
      </trkpt>
      <trkpt lat="43.357591" lon="1.813886">
        <ele>180.5</ele>
        <time>2015-08-04T13:51:14Z</time>
      </trkpt>
      <trkpt lat="43.357629" lon="1.813727">
        <ele>179.6</ele>
        <time>2015-08-04T13:51:18Z</time>
      </trkpt>
      <trkpt lat="43.357680" lon="1.813471">
        <ele>178.2</ele>
        <time>2015-08-04T13:51:22Z</time>
      </trkpt>
      <trkpt lat="43.357718" lon="1.813262">
        <ele>178.9</ele>
        <time>2015-08-04T13:51:26Z</time>
      </trkpt>
      <trkpt lat="43.357724" lon="1.813078">
        <ele>181.7</ele>
        <time>2015-08-04T13:51:29Z</time>
      </trkpt>
      <trkpt lat="43.357743" lon="1.812896">
        <ele>182.5</ele>
        <time>2015-08-04T13:51:32Z</time>
      </trkpt>
      <trkpt lat="43.357761" lon="1.812726">
        <ele>183.3</ele>
        <time>2015-08-04T13:51:35Z</time>
      </trkpt>
      <trkpt lat="43.357765" lon="1.812571">
        <ele>185.0</ele>
        <time>2015-08-04T13:51:38Z</time>
      </trkpt>
      <trkpt lat="43.357777" lon="1.812410">
        <ele>185.4</ele>
        <time>2015-08-04T13:51:41Z</time>
      </trkpt>
      <trkpt lat="43.357785" lon="1.812253">
        <ele>186.3</ele>
        <time>2015-08-04T13:51:44Z</time>
      </trkpt>
      <trkpt lat="43.357792" lon="1.812109">
        <ele>187.3</ele>
        <time>2015-08-04T13:51:47Z</time>
      </trkpt>
      <trkpt lat="43.357806" lon="1.811948">
        <ele>188.4</ele>
        <time>2015-08-04T13:51:50Z</time>
      </trkpt>
      <trkpt lat="43.357814" lon="1.811785">
        <ele>188.9</ele>
        <time>2015-08-04T13:51:53Z</time>
      </trkpt>
      <trkpt lat="43.357822" lon="1.811620">
        <ele>190.3</ele>
        <time>2015-08-04T13:51:56Z</time>
      </trkpt>
      <trkpt lat="43.357870" lon="1.811460">
        <ele>190.4</ele>
        <time>2015-08-04T13:51:59Z</time>
      </trkpt>
      <trkpt lat="43.357869" lon="1.811318">
        <ele>191.6</ele>
        <time>2015-08-04T13:52:02Z</time>
      </trkpt>
      <trkpt lat="43.357846" lon="1.811175">
        <ele>192.6</ele>
        <time>2015-08-04T13:52:05Z</time>
      </trkpt>
      <trkpt lat="43.357842" lon="1.810971">
        <ele>188.2</ele>
        <time>2015-08-04T13:52:08Z</time>
      </trkpt>
      <trkpt lat="43.357826" lon="1.810786">
        <ele>186.6</ele>
        <time>2015-08-04T13:52:11Z</time>
      </trkpt>
      <trkpt lat="43.357815" lon="1.810610">
        <ele>186.2</ele>
        <time>2015-08-04T13:52:14Z</time>
      </trkpt>
      <trkpt lat="43.357802" lon="1.810404">
        <ele>184.9</ele>
        <time>2015-08-04T13:52:17Z</time>
      </trkpt>
      <trkpt lat="43.357776" lon="1.810226">
        <ele>185.1</ele>
        <time>2015-08-04T13:52:20Z</time>
      </trkpt>
      <trkpt lat="43.357756" lon="1.810048">
        <ele>185.1</ele>
        <time>2015-08-04T13:52:23Z</time>
      </trkpt>
      <trkpt lat="43.357735" lon="1.809875">
        <ele>185.1</ele>
        <time>2015-08-04T13:52:26Z</time>
      </trkpt>
      <trkpt lat="43.357725" lon="1.809703">
        <ele>184.3</ele>
        <time>2015-08-04T13:52:29Z</time>
      </trkpt>
      <trkpt lat="43.357725" lon="1.809511">
        <ele>182.4</ele>
        <time>2015-08-04T13:52:32Z</time>
      </trkpt>
      <trkpt lat="43.357704" lon="1.809347">
        <ele>181.1</ele>
        <time>2015-08-04T13:52:35Z</time>
      </trkpt>
      <trkpt lat="43.357678" lon="1.809184">
        <ele>179.6</ele>
        <time>2015-08-04T13:52:38Z</time>
      </trkpt>
      <trkpt lat="43.357651" lon="1.809026">
        <ele>181.2</ele>
        <time>2015-08-04T13:52:41Z</time>
      </trkpt>
      <trkpt lat="43.357630" lon="1.808874">
        <ele>180.8</ele>
        <time>2015-08-04T13:52:44Z</time>
      </trkpt>
      <trkpt lat="43.357603" lon="1.808714">
        <ele>179.7</ele>
        <time>2015-08-04T13:52:47Z</time>
      </trkpt>
      <trkpt lat="43.357587" lon="1.808570">
        <ele>179.4</ele>
        <time>2015-08-04T13:52:50Z</time>
      </trkpt>
      <trkpt lat="43.357558" lon="1.808372">
        <ele>181.3</ele>
        <time>2015-08-04T13:52:54Z</time>
      </trkpt>
      <trkpt lat="43.357538" lon="1.808222">
        <ele>181.1</ele>
        <time>2015-08-04T13:52:57Z</time>
      </trkpt>
      <trkpt lat="43.357505" lon="1.808086">
        <ele>181.7</ele>
        <time>2015-08-04T13:53:00Z</time>
      </trkpt>
      <trkpt lat="43.357470" lon="1.807891">
        <ele>180.6</ele>
        <time>2015-08-04T13:53:04Z</time>
      </trkpt>
      <trkpt lat="43.357433" lon="1.807698">
        <ele>179.8</ele>
        <time>2015-08-04T13:53:08Z</time>
      </trkpt>
      <trkpt lat="43.357384" lon="1.807524">
        <ele>179.1</ele>
        <time>2015-08-04T13:53:12Z</time>
      </trkpt>
      <trkpt lat="43.357340" lon="1.807355">
        <ele>178.4</ele>
        <time>2015-08-04T13:53:16Z</time>
      </trkpt>
      <trkpt lat="43.357305" lon="1.807205">
        <ele>178.2</ele>
        <time>2015-08-04T13:53:20Z</time>
      </trkpt>
      <trkpt lat="43.357256" lon="1.807061">
        <ele>177.9</ele>
        <time>2015-08-04T13:53:24Z</time>
      </trkpt>
      <trkpt lat="43.357200" lon="1.806891">
        <ele>179.2</ele>
        <time>2015-08-04T13:53:27Z</time>
      </trkpt>
      <trkpt lat="43.357133" lon="1.806699">
        <ele>180.7</ele>
        <time>2015-08-04T13:53:30Z</time>
      </trkpt>
      <trkpt lat="43.357086" lon="1.806535">
        <ele>183.6</ele>
        <time>2015-08-04T13:53:33Z</time>
      </trkpt>
      <trkpt lat="43.357050" lon="1.806421">
        <ele>185.1</ele>
        <time>2015-08-04T13:53:36Z</time>
      </trkpt>
      <trkpt lat="43.357026" lon="1.806239">
        <ele>186.2</ele>
        <time>2015-08-04T13:53:40Z</time>
      </trkpt>
      <trkpt lat="43.357018" lon="1.806071">
        <ele>187.5</ele>
        <time>2015-08-04T13:53:43Z</time>
      </trkpt>
      <trkpt lat="43.356985" lon="1.805920">
        <ele>188.4</ele>
        <time>2015-08-04T13:53:46Z</time>
      </trkpt>
      <trkpt lat="43.356933" lon="1.805758">
        <ele>189.0</ele>
        <time>2015-08-04T13:53:49Z</time>
      </trkpt>
      <trkpt lat="43.356959" lon="1.805603">
        <ele>188.7</ele>
        <time>2015-08-04T13:53:55Z</time>
      </trkpt>
      <trkpt lat="43.356923" lon="1.805490">
        <ele>178.4</ele>
        <time>2015-08-04T13:55:09Z</time>
      </trkpt>
      <trkpt lat="43.356841" lon="1.805389">
        <ele>179.3</ele>
        <time>2015-08-04T13:55:13Z</time>
      </trkpt>
      <trkpt lat="43.356762" lon="1.805306">
        <ele>179.5</ele>
        <time>2015-08-04T13:55:16Z</time>
      </trkpt>
      <trkpt lat="43.356682" lon="1.805188">
        <ele>179.8</ele>
        <time>2015-08-04T13:55:19Z</time>
      </trkpt>
      <trkpt lat="43.356597" lon="1.805047">
        <ele>180.5</ele>
        <time>2015-08-04T13:55:22Z</time>
      </trkpt>
      <trkpt lat="43.356540" lon="1.804942">
        <ele>181.3</ele>
        <time>2015-08-04T13:55:24Z</time>
      </trkpt>
      <trkpt lat="43.356483" lon="1.804842">
        <ele>181.4</ele>
        <time>2015-08-04T13:55:26Z</time>
      </trkpt>
      <trkpt lat="43.356423" lon="1.804747">
        <ele>181.4</ele>
        <time>2015-08-04T13:55:28Z</time>
      </trkpt>
      <trkpt lat="43.356330" lon="1.804600">
        <ele>182.2</ele>
        <time>2015-08-04T13:55:31Z</time>
      </trkpt>
      <trkpt lat="43.356257" lon="1.804510">
        <ele>183.1</ele>
        <time>2015-08-04T13:55:33Z</time>
      </trkpt>
      <trkpt lat="43.356194" lon="1.804421">
        <ele>184.0</ele>
        <time>2015-08-04T13:55:35Z</time>
      </trkpt>
      <trkpt lat="43.356103" lon="1.804277">
        <ele>185.0</ele>
        <time>2015-08-04T13:55:38Z</time>
      </trkpt>
      <trkpt lat="43.356003" lon="1.804134">
        <ele>186.2</ele>
        <time>2015-08-04T13:55:41Z</time>
      </trkpt>
      <trkpt lat="43.355910" lon="1.804011">
        <ele>187.9</ele>
        <time>2015-08-04T13:55:44Z</time>
      </trkpt>
      <trkpt lat="43.355814" lon="1.803880">
        <ele>189.6</ele>
        <time>2015-08-04T13:55:47Z</time>
      </trkpt>
      <trkpt lat="43.355713" lon="1.803741">
        <ele>190.5</ele>
        <time>2015-08-04T13:55:50Z</time>
      </trkpt>
      <trkpt lat="43.355598" lon="1.803649">
        <ele>190.9</ele>
        <time>2015-08-04T13:55:53Z</time>
      </trkpt>
      <trkpt lat="43.355490" lon="1.803602">
        <ele>190.6</ele>
        <time>2015-08-04T13:55:56Z</time>
      </trkpt>
      <trkpt lat="43.355386" lon="1.803534">
        <ele>190.6</ele>
        <time>2015-08-04T13:55:59Z</time>
      </trkpt>
      <trkpt lat="43.355298" lon="1.803426">
        <ele>191.1</ele>
        <time>2015-08-04T13:56:02Z</time>
      </trkpt>
      <trkpt lat="43.355204" lon="1.803329">
        <ele>191.1</ele>
        <time>2015-08-04T13:56:05Z</time>
      </trkpt>
      <trkpt lat="43.355101" lon="1.803227">
        <ele>190.6</ele>
        <time>2015-08-04T13:56:08Z</time>
      </trkpt>
      <trkpt lat="43.355012" lon="1.803131">
        <ele>188.9</ele>
        <time>2015-08-04T13:56:11Z</time>
      </trkpt>
      <trkpt lat="43.354938" lon="1.802910">
        <ele>190.6</ele>
        <time>2015-08-04T13:56:14Z</time>
      </trkpt>
      <trkpt lat="43.354889" lon="1.802712">
        <ele>192.2</ele>
        <time>2015-08-04T13:56:17Z</time>
      </trkpt>
      <trkpt lat="43.354805" lon="1.802562">
        <ele>193.6</ele>
        <time>2015-08-04T13:56:20Z</time>
      </trkpt>
      <trkpt lat="43.354690" lon="1.802446">
        <ele>194.7</ele>
        <time>2015-08-04T13:56:23Z</time>
      </trkpt>
      <trkpt lat="43.354585" lon="1.802306">
        <ele>196.4</ele>
        <time>2015-08-04T13:56:26Z</time>
      </trkpt>
      <trkpt lat="43.354512" lon="1.802209">
        <ele>195.8</ele>
        <time>2015-08-04T13:56:28Z</time>
      </trkpt>
      <trkpt lat="43.354417" lon="1.802041">
        <ele>196.4</ele>
        <time>2015-08-04T13:56:31Z</time>
      </trkpt>
      <trkpt lat="43.354336" lon="1.801876">
        <ele>196.4</ele>
        <time>2015-08-04T13:56:34Z</time>
      </trkpt>
      <trkpt lat="43.354262" lon="1.801685">
        <ele>195.0</ele>
        <time>2015-08-04T13:56:37Z</time>
      </trkpt>
      <trkpt lat="43.354216" lon="1.801562">
        <ele>194.9</ele>
        <time>2015-08-04T13:56:39Z</time>
      </trkpt>
      <trkpt lat="43.354156" lon="1.801342">
        <ele>194.4</ele>
        <time>2015-08-04T13:56:42Z</time>
      </trkpt>
      <trkpt lat="43.354122" lon="1.801180">
        <ele>193.5</ele>
        <time>2015-08-04T13:56:44Z</time>
      </trkpt>
      <trkpt lat="43.354097" lon="1.801018">
        <ele>192.0</ele>
        <time>2015-08-04T13:56:46Z</time>
      </trkpt>
      <trkpt lat="43.354073" lon="1.800866">
        <ele>190.3</ele>
        <time>2015-08-04T13:56:48Z</time>
      </trkpt>
      <trkpt lat="43.354058" lon="1.800723">
        <ele>190.1</ele>
        <time>2015-08-04T13:56:50Z</time>
      </trkpt>
      <trkpt lat="43.354049" lon="1.800578">
        <ele>189.4</ele>
        <time>2015-08-04T13:56:52Z</time>
      </trkpt>
      <trkpt lat="43.354042" lon="1.800441">
        <ele>188.2</ele>
        <time>2015-08-04T13:56:54Z</time>
      </trkpt>
      <trkpt lat="43.354048" lon="1.800305">
        <ele>187.3</ele>
        <time>2015-08-04T13:56:56Z</time>
      </trkpt>
      <trkpt lat="43.354054" lon="1.800172">
        <ele>187.0</ele>
        <time>2015-08-04T13:56:58Z</time>
      </trkpt>
      <trkpt lat="43.354059" lon="1.800042">
        <ele>186.8</ele>
        <time>2015-08-04T13:57:00Z</time>
      </trkpt>
      <trkpt lat="43.354050" lon="1.799918">
        <ele>186.7</ele>
        <time>2015-08-04T13:57:02Z</time>
      </trkpt>
      <trkpt lat="43.354014" lon="1.799783">
        <ele>186.7</ele>
        <time>2015-08-04T13:57:05Z</time>
      </trkpt>
      <trkpt lat="43.353983" lon="1.799673">
        <ele>186.8</ele>
        <time>2015-08-04T13:57:09Z</time>
      </trkpt>
      <trkpt lat="43.354002" lon="1.799536">
        <ele>186.8</ele>
        <time>2015-08-04T13:57:14Z</time>
      </trkpt>
      <trkpt lat="43.354044" lon="1.799394">
        <ele>185.3</ele>
        <time>2015-08-04T13:57:17Z</time>
      </trkpt>
      <trkpt lat="43.354096" lon="1.799239">
        <ele>184.4</ele>
        <time>2015-08-04T13:57:20Z</time>
      </trkpt>
      <trkpt lat="43.354168" lon="1.799071">
        <ele>181.6</ele>
        <time>2015-08-04T13:57:23Z</time>
      </trkpt>
      <trkpt lat="43.354239" lon="1.798915">
        <ele>180.0</ele>
        <time>2015-08-04T13:57:26Z</time>
      </trkpt>
      <trkpt lat="43.354304" lon="1.798762">
        <ele>178.5</ele>
        <time>2015-08-04T13:57:29Z</time>
      </trkpt>
      <trkpt lat="43.354369" lon="1.798611">
        <ele>177.6</ele>
        <time>2015-08-04T13:57:32Z</time>
      </trkpt>
      <trkpt lat="43.354435" lon="1.798467">
        <ele>178.0</ele>
        <time>2015-08-04T13:57:35Z</time>
      </trkpt>
      <trkpt lat="43.354504" lon="1.798298">
        <ele>176.8</ele>
        <time>2015-08-04T13:57:38Z</time>
      </trkpt>
      <trkpt lat="43.354569" lon="1.798134">
        <ele>174.4</ele>
        <time>2015-08-04T13:57:41Z</time>
      </trkpt>
      <trkpt lat="43.354641" lon="1.797966">
        <ele>173.6</ele>
        <time>2015-08-04T13:57:44Z</time>
      </trkpt>
      <trkpt lat="43.354716" lon="1.797813">
        <ele>172.1</ele>
        <time>2015-08-04T13:57:47Z</time>
      </trkpt>
      <trkpt lat="43.354802" lon="1.797664">
        <ele>171.6</ele>
        <time>2015-08-04T13:57:50Z</time>
      </trkpt>
      <trkpt lat="43.354878" lon="1.797497">
        <ele>171.7</ele>
        <time>2015-08-04T13:57:53Z</time>
      </trkpt>
      <trkpt lat="43.354936" lon="1.797390">
        <ele>171.2</ele>
        <time>2015-08-04T13:57:55Z</time>
      </trkpt>
      <trkpt lat="43.354990" lon="1.797278">
        <ele>170.9</ele>
        <time>2015-08-04T13:57:57Z</time>
      </trkpt>
      <trkpt lat="43.355052" lon="1.797169">
        <ele>171.5</ele>
        <time>2015-08-04T13:57:59Z</time>
      </trkpt>
      <trkpt lat="43.355107" lon="1.797059">
        <ele>172.3</ele>
        <time>2015-08-04T13:58:01Z</time>
      </trkpt>
      <trkpt lat="43.355180" lon="1.796898">
        <ele>172.2</ele>
        <time>2015-08-04T13:58:04Z</time>
      </trkpt>
      <trkpt lat="43.355268" lon="1.796746">
        <ele>172.7</ele>
        <time>2015-08-04T13:58:07Z</time>
      </trkpt>
      <trkpt lat="43.355333" lon="1.796627">
        <ele>172.3</ele>
        <time>2015-08-04T13:58:09Z</time>
      </trkpt>
      <trkpt lat="43.355413" lon="1.796473">
        <ele>171.5</ele>
        <time>2015-08-04T13:58:12Z</time>
      </trkpt>
      <trkpt lat="43.355469" lon="1.796358">
        <ele>170.2</ele>
        <time>2015-08-04T13:58:15Z</time>
      </trkpt>
      <trkpt lat="43.355519" lon="1.796249">
        <ele>168.6</ele>
        <time>2015-08-04T13:58:18Z</time>
      </trkpt>
      <trkpt lat="43.355577" lon="1.796111">
        <ele>166.7</ele>
        <time>2015-08-04T13:58:22Z</time>
      </trkpt>
      <trkpt lat="43.355638" lon="1.795989">
        <ele>167.4</ele>
        <time>2015-08-04T13:58:25Z</time>
      </trkpt>
      <trkpt lat="43.355690" lon="1.795847">
        <ele>169.2</ele>
        <time>2015-08-04T13:58:29Z</time>
      </trkpt>
      <trkpt lat="43.355717" lon="1.795707">
        <ele>172.4</ele>
        <time>2015-08-04T13:58:33Z</time>
      </trkpt>
      <trkpt lat="43.355764" lon="1.795588">
        <ele>176.4</ele>
        <time>2015-08-04T13:58:38Z</time>
      </trkpt>
      <trkpt lat="43.355807" lon="1.795468">
        <ele>179.3</ele>
        <time>2015-08-04T13:58:45Z</time>
      </trkpt>
      <trkpt lat="43.355805" lon="1.795392">
        <ele>183.6</ele>
        <time>2015-08-04T13:59:14Z</time>
      </trkpt>
      <trkpt lat="43.355844" lon="1.795382">
        <ele>184.3</ele>
        <time>2015-08-04T14:00:55Z</time>
      </trkpt>
      <trkpt lat="43.355896" lon="1.795244">
        <ele>185.0</ele>
        <time>2015-08-04T14:01:01Z</time>
      </trkpt>
      <trkpt lat="43.355923" lon="1.795102">
        <ele>185.7</ele>
        <time>2015-08-04T14:01:04Z</time>
      </trkpt>
      <trkpt lat="43.355955" lon="1.794926">
        <ele>185.9</ele>
        <time>2015-08-04T14:01:07Z</time>
      </trkpt>
      <trkpt lat="43.355976" lon="1.794798">
        <ele>186.3</ele>
        <time>2015-08-04T14:01:09Z</time>
      </trkpt>
      <trkpt lat="43.356002" lon="1.794667">
        <ele>186.4</ele>
        <time>2015-08-04T14:01:11Z</time>
      </trkpt>
      <trkpt lat="43.356020" lon="1.794536">
        <ele>187.8</ele>
        <time>2015-08-04T14:01:13Z</time>
      </trkpt>
      <trkpt lat="43.356049" lon="1.794411">
        <ele>188.6</ele>
        <time>2015-08-04T14:01:15Z</time>
      </trkpt>
      <trkpt lat="43.356078" lon="1.794293">
        <ele>189.7</ele>
        <time>2015-08-04T14:01:17Z</time>
      </trkpt>
      <trkpt lat="43.356105" lon="1.794160">
        <ele>190.2</ele>
        <time>2015-08-04T14:01:19Z</time>
      </trkpt>
      <trkpt lat="43.356126" lon="1.794022">
        <ele>190.2</ele>
        <time>2015-08-04T14:01:21Z</time>
      </trkpt>
      <trkpt lat="43.356147" lon="1.793887">
        <ele>190.1</ele>
        <time>2015-08-04T14:01:23Z</time>
      </trkpt>
      <trkpt lat="43.356168" lon="1.793752">
        <ele>190.0</ele>
        <time>2015-08-04T14:01:25Z</time>
      </trkpt>
      <trkpt lat="43.356201" lon="1.793558">
        <ele>190.3</ele>
        <time>2015-08-04T14:01:28Z</time>
      </trkpt>
      <trkpt lat="43.356221" lon="1.793426">
        <ele>190.5</ele>
        <time>2015-08-04T14:01:30Z</time>
      </trkpt>
      <trkpt lat="43.356252" lon="1.793237">
        <ele>190.2</ele>
        <time>2015-08-04T14:01:33Z</time>
      </trkpt>
      <trkpt lat="43.356270" lon="1.793111">
        <ele>190.6</ele>
        <time>2015-08-04T14:01:35Z</time>
      </trkpt>
      <trkpt lat="43.356290" lon="1.792972">
        <ele>191.4</ele>
        <time>2015-08-04T14:01:37Z</time>
      </trkpt>
      <trkpt lat="43.356310" lon="1.792825">
        <ele>191.2</ele>
        <time>2015-08-04T14:01:39Z</time>
      </trkpt>
      <trkpt lat="43.356340" lon="1.792674">
        <ele>190.9</ele>
        <time>2015-08-04T14:01:41Z</time>
      </trkpt>
      <trkpt lat="43.356373" lon="1.792529">
        <ele>190.8</ele>
        <time>2015-08-04T14:01:43Z</time>
      </trkpt>
      <trkpt lat="43.356406" lon="1.792381">
        <ele>190.7</ele>
        <time>2015-08-04T14:01:45Z</time>
      </trkpt>
      <trkpt lat="43.356440" lon="1.792231">
        <ele>190.6</ele>
        <time>2015-08-04T14:01:47Z</time>
      </trkpt>
      <trkpt lat="43.356473" lon="1.792083">
        <ele>189.9</ele>
        <time>2015-08-04T14:01:49Z</time>
      </trkpt>
      <trkpt lat="43.356500" lon="1.791945">
        <ele>190.0</ele>
        <time>2015-08-04T14:01:51Z</time>
      </trkpt>
      <trkpt lat="43.356531" lon="1.791807">
        <ele>189.8</ele>
        <time>2015-08-04T14:01:53Z</time>
      </trkpt>
      <trkpt lat="43.356571" lon="1.791666">
        <ele>189.7</ele>
        <time>2015-08-04T14:01:55Z</time>
      </trkpt>
      <trkpt lat="43.356605" lon="1.791514">
        <ele>187.5</ele>
        <time>2015-08-04T14:01:57Z</time>
      </trkpt>
      <trkpt lat="43.356643" lon="1.791372">
        <ele>186.6</ele>
        <time>2015-08-04T14:01:59Z</time>
      </trkpt>
      <trkpt lat="43.356679" lon="1.791225">
        <ele>185.5</ele>
        <time>2015-08-04T14:02:01Z</time>
      </trkpt>
      <trkpt lat="43.356711" lon="1.791086">
        <ele>184.9</ele>
        <time>2015-08-04T14:02:03Z</time>
      </trkpt>
      <trkpt lat="43.356744" lon="1.790945">
        <ele>184.8</ele>
        <time>2015-08-04T14:02:05Z</time>
      </trkpt>
      <trkpt lat="43.356782" lon="1.790796">
        <ele>184.5</ele>
        <time>2015-08-04T14:02:07Z</time>
      </trkpt>
      <trkpt lat="43.356816" lon="1.790655">
        <ele>183.8</ele>
        <time>2015-08-04T14:02:09Z</time>
      </trkpt>
      <trkpt lat="43.356849" lon="1.790517">
        <ele>183.2</ele>
        <time>2015-08-04T14:02:11Z</time>
      </trkpt>
      <trkpt lat="43.356885" lon="1.790390">
        <ele>183.6</ele>
        <time>2015-08-04T14:02:13Z</time>
      </trkpt>
      <trkpt lat="43.356929" lon="1.790254">
        <ele>183.7</ele>
        <time>2015-08-04T14:02:15Z</time>
      </trkpt>
      <trkpt lat="43.356978" lon="1.790112">
        <ele>182.5</ele>
        <time>2015-08-04T14:02:17Z</time>
      </trkpt>
      <trkpt lat="43.357025" lon="1.789965">
        <ele>183.7</ele>
        <time>2015-08-04T14:02:19Z</time>
      </trkpt>
      <trkpt lat="43.357064" lon="1.789811">
        <ele>183.1</ele>
        <time>2015-08-04T14:02:21Z</time>
      </trkpt>
      <trkpt lat="43.357104" lon="1.789657">
        <ele>183.1</ele>
        <time>2015-08-04T14:02:23Z</time>
      </trkpt>
      <trkpt lat="43.357142" lon="1.789504">
        <ele>183.6</ele>
        <time>2015-08-04T14:02:25Z</time>
      </trkpt>
      <trkpt lat="43.357187" lon="1.789352">
        <ele>184.1</ele>
        <time>2015-08-04T14:02:27Z</time>
      </trkpt>
      <trkpt lat="43.357226" lon="1.789205">
        <ele>185.3</ele>
        <time>2015-08-04T14:02:29Z</time>
      </trkpt>
      <trkpt lat="43.357262" lon="1.789056">
        <ele>185.7</ele>
        <time>2015-08-04T14:02:31Z</time>
      </trkpt>
      <trkpt lat="43.357296" lon="1.788921">
        <ele>186.1</ele>
        <time>2015-08-04T14:02:33Z</time>
      </trkpt>
      <trkpt lat="43.357330" lon="1.788788">
        <ele>187.1</ele>
        <time>2015-08-04T14:02:35Z</time>
      </trkpt>
      <trkpt lat="43.357364" lon="1.788648">
        <ele>187.6</ele>
        <time>2015-08-04T14:02:37Z</time>
      </trkpt>
      <trkpt lat="43.357397" lon="1.788500">
        <ele>188.4</ele>
        <time>2015-08-04T14:02:39Z</time>
      </trkpt>
      <trkpt lat="43.357434" lon="1.788359">
        <ele>187.9</ele>
        <time>2015-08-04T14:02:41Z</time>
      </trkpt>
      <trkpt lat="43.357471" lon="1.788219">
        <ele>188.1</ele>
        <time>2015-08-04T14:02:43Z</time>
      </trkpt>
      <trkpt lat="43.357504" lon="1.788081">
        <ele>188.1</ele>
        <time>2015-08-04T14:02:45Z</time>
      </trkpt>
      <trkpt lat="43.357538" lon="1.787944">
        <ele>188.0</ele>
        <time>2015-08-04T14:02:47Z</time>
      </trkpt>
      <trkpt lat="43.357566" lon="1.787805">
        <ele>188.5</ele>
        <time>2015-08-04T14:02:49Z</time>
      </trkpt>
      <trkpt lat="43.357603" lon="1.787663">
        <ele>188.1</ele>
        <time>2015-08-04T14:02:51Z</time>
      </trkpt>
      <trkpt lat="43.357648" lon="1.787527">
        <ele>188.1</ele>
        <time>2015-08-04T14:02:53Z</time>
      </trkpt>
      <trkpt lat="43.357684" lon="1.787398">
        <ele>188.5</ele>
        <time>2015-08-04T14:02:55Z</time>
      </trkpt>
      <trkpt lat="43.357722" lon="1.787267">
        <ele>188.1</ele>
        <time>2015-08-04T14:02:57Z</time>
      </trkpt>
      <trkpt lat="43.357759" lon="1.787132">
        <ele>187.5</ele>
        <time>2015-08-04T14:02:59Z</time>
      </trkpt>
      <trkpt lat="43.357799" lon="1.787002">
        <ele>187.1</ele>
        <time>2015-08-04T14:03:01Z</time>
      </trkpt>
      <trkpt lat="43.357832" lon="1.786865">
        <ele>187.2</ele>
        <time>2015-08-04T14:03:03Z</time>
      </trkpt>
      <trkpt lat="43.357870" lon="1.786731">
        <ele>187.2</ele>
        <time>2015-08-04T14:03:05Z</time>
      </trkpt>
      <trkpt lat="43.357903" lon="1.786590">
        <ele>186.4</ele>
        <time>2015-08-04T14:03:07Z</time>
      </trkpt>
      <trkpt lat="43.357945" lon="1.786449">
        <ele>186.8</ele>
        <time>2015-08-04T14:03:09Z</time>
      </trkpt>
      <trkpt lat="43.357977" lon="1.786317">
        <ele>186.3</ele>
        <time>2015-08-04T14:03:11Z</time>
      </trkpt>
      <trkpt lat="43.358012" lon="1.786180">
        <ele>185.9</ele>
        <time>2015-08-04T14:03:13Z</time>
      </trkpt>
      <trkpt lat="43.358051" lon="1.786041">
        <ele>185.7</ele>
        <time>2015-08-04T14:03:15Z</time>
      </trkpt>
      <trkpt lat="43.358093" lon="1.785900">
        <ele>185.0</ele>
        <time>2015-08-04T14:03:17Z</time>
      </trkpt>
      <trkpt lat="43.358138" lon="1.785758">
        <ele>184.7</ele>
        <time>2015-08-04T14:03:19Z</time>
      </trkpt>
      <trkpt lat="43.358174" lon="1.785623">
        <ele>184.2</ele>
        <time>2015-08-04T14:03:21Z</time>
      </trkpt>
      <trkpt lat="43.358217" lon="1.785481">
        <ele>184.1</ele>
        <time>2015-08-04T14:03:23Z</time>
      </trkpt>
      <trkpt lat="43.358262" lon="1.785337">
        <ele>183.5</ele>
        <time>2015-08-04T14:03:25Z</time>
      </trkpt>
      <trkpt lat="43.358298" lon="1.785197">
        <ele>182.8</ele>
        <time>2015-08-04T14:03:27Z</time>
      </trkpt>
      <trkpt lat="43.358336" lon="1.785065">
        <ele>182.1</ele>
        <time>2015-08-04T14:03:29Z</time>
      </trkpt>
      <trkpt lat="43.358375" lon="1.784938">
        <ele>181.5</ele>
        <time>2015-08-04T14:03:31Z</time>
      </trkpt>
      <trkpt lat="43.358418" lon="1.784807">
        <ele>181.5</ele>
        <time>2015-08-04T14:03:33Z</time>
      </trkpt>
      <trkpt lat="43.358455" lon="1.784674">
        <ele>181.0</ele>
        <time>2015-08-04T14:03:35Z</time>
      </trkpt>
      <trkpt lat="43.358486" lon="1.784544">
        <ele>180.8</ele>
        <time>2015-08-04T14:03:37Z</time>
      </trkpt>
      <trkpt lat="43.358515" lon="1.784424">
        <ele>181.1</ele>
        <time>2015-08-04T14:03:39Z</time>
      </trkpt>
      <trkpt lat="43.358555" lon="1.784295">
        <ele>181.0</ele>
        <time>2015-08-04T14:03:41Z</time>
      </trkpt>
      <trkpt lat="43.358581" lon="1.784155">
        <ele>180.7</ele>
        <time>2015-08-04T14:03:43Z</time>
      </trkpt>
      <trkpt lat="43.358622" lon="1.784023">
        <ele>179.8</ele>
        <time>2015-08-04T14:03:45Z</time>
      </trkpt>
      <trkpt lat="43.358660" lon="1.783887">
        <ele>179.1</ele>
        <time>2015-08-04T14:03:47Z</time>
      </trkpt>
      <trkpt lat="43.358704" lon="1.783756">
        <ele>178.4</ele>
        <time>2015-08-04T14:03:49Z</time>
      </trkpt>
      <trkpt lat="43.358747" lon="1.783620">
        <ele>177.7</ele>
        <time>2015-08-04T14:03:51Z</time>
      </trkpt>
      <trkpt lat="43.358793" lon="1.783485">
        <ele>177.1</ele>
        <time>2015-08-04T14:03:53Z</time>
      </trkpt>
      <trkpt lat="43.358839" lon="1.783361">
        <ele>176.6</ele>
        <time>2015-08-04T14:03:55Z</time>
      </trkpt>
      <trkpt lat="43.358888" lon="1.783237">
        <ele>176.4</ele>
        <time>2015-08-04T14:03:57Z</time>
      </trkpt>
      <trkpt lat="43.358944" lon="1.783111">
        <ele>175.5</ele>
        <time>2015-08-04T14:03:59Z</time>
      </trkpt>
      <trkpt lat="43.359008" lon="1.782989">
        <ele>175.1</ele>
        <time>2015-08-04T14:04:01Z</time>
      </trkpt>
      <trkpt lat="43.359072" lon="1.782873">
        <ele>175.1</ele>
        <time>2015-08-04T14:04:03Z</time>
      </trkpt>
      <trkpt lat="43.359126" lon="1.782762">
        <ele>174.8</ele>
        <time>2015-08-04T14:04:05Z</time>
      </trkpt>
      <trkpt lat="43.359219" lon="1.782603">
        <ele>174.6</ele>
        <time>2015-08-04T14:04:08Z</time>
      </trkpt>
      <trkpt lat="43.359273" lon="1.782480">
        <ele>173.6</ele>
        <time>2015-08-04T14:04:10Z</time>
      </trkpt>
      <trkpt lat="43.359351" lon="1.782345">
        <ele>174.3</ele>
        <time>2015-08-04T14:04:12Z</time>
      </trkpt>
      <trkpt lat="43.359429" lon="1.782221">
        <ele>175.3</ele>
        <time>2015-08-04T14:04:14Z</time>
      </trkpt>
      <trkpt lat="43.359496" lon="1.782107">
        <ele>175.9</ele>
        <time>2015-08-04T14:04:16Z</time>
      </trkpt>
      <trkpt lat="43.359561" lon="1.782006">
        <ele>176.1</ele>
        <time>2015-08-04T14:04:18Z</time>
      </trkpt>
      <trkpt lat="43.359626" lon="1.781909">
        <ele>175.5</ele>
        <time>2015-08-04T14:04:20Z</time>
      </trkpt>
      <trkpt lat="43.359711" lon="1.781757">
        <ele>174.3</ele>
        <time>2015-08-04T14:04:23Z</time>
      </trkpt>
      <trkpt lat="43.359771" lon="1.781657">
        <ele>174.1</ele>
        <time>2015-08-04T14:04:25Z</time>
      </trkpt>
      <trkpt lat="43.359827" lon="1.781552">
        <ele>173.5</ele>
        <time>2015-08-04T14:04:27Z</time>
      </trkpt>
      <trkpt lat="43.359883" lon="1.781445">
        <ele>173.1</ele>
        <time>2015-08-04T14:04:29Z</time>
      </trkpt>
      <trkpt lat="43.359965" lon="1.781277">
        <ele>172.6</ele>
        <time>2015-08-04T14:04:32Z</time>
      </trkpt>
      <trkpt lat="43.360012" lon="1.781162">
        <ele>173.1</ele>
        <time>2015-08-04T14:04:34Z</time>
      </trkpt>
      <trkpt lat="43.360083" lon="1.780996">
        <ele>173.8</ele>
        <time>2015-08-04T14:04:37Z</time>
      </trkpt>
      <trkpt lat="43.360140" lon="1.780890">
        <ele>174.1</ele>
        <time>2015-08-04T14:04:39Z</time>
      </trkpt>
      <trkpt lat="43.360222" lon="1.780720">
        <ele>174.5</ele>
        <time>2015-08-04T14:04:42Z</time>
      </trkpt>
      <trkpt lat="43.360264" lon="1.780598">
        <ele>175.0</ele>
        <time>2015-08-04T14:04:44Z</time>
      </trkpt>
      <trkpt lat="43.360326" lon="1.780410">
        <ele>175.8</ele>
        <time>2015-08-04T14:04:47Z</time>
      </trkpt>
      <trkpt lat="43.360369" lon="1.780255">
        <ele>176.5</ele>
        <time>2015-08-04T14:04:49Z</time>
      </trkpt>
      <trkpt lat="43.360422" lon="1.780102">
        <ele>178.5</ele>
        <time>2015-08-04T14:04:51Z</time>
      </trkpt>
      <trkpt lat="43.360465" lon="1.779968">
        <ele>179.3</ele>
        <time>2015-08-04T14:04:53Z</time>
      </trkpt>
      <trkpt lat="43.360526" lon="1.779791">
        <ele>180.9</ele>
        <time>2015-08-04T14:04:56Z</time>
      </trkpt>
      <trkpt lat="43.360568" lon="1.779666">
        <ele>181.8</ele>
        <time>2015-08-04T14:04:58Z</time>
      </trkpt>
      <trkpt lat="43.360630" lon="1.779474">
        <ele>181.4</ele>
        <time>2015-08-04T14:05:01Z</time>
      </trkpt>
      <trkpt lat="43.360664" lon="1.779345">
        <ele>181.2</ele>
        <time>2015-08-04T14:05:03Z</time>
      </trkpt>
      <trkpt lat="43.360708" lon="1.779217">
        <ele>181.6</ele>
        <time>2015-08-04T14:05:05Z</time>
      </trkpt>
      <trkpt lat="43.360750" lon="1.779082">
        <ele>181.6</ele>
        <time>2015-08-04T14:05:07Z</time>
      </trkpt>
      <trkpt lat="43.360790" lon="1.778947">
        <ele>180.8</ele>
        <time>2015-08-04T14:05:09Z</time>
      </trkpt>
      <trkpt lat="43.360830" lon="1.778817">
        <ele>180.0</ele>
        <time>2015-08-04T14:05:11Z</time>
      </trkpt>
      <trkpt lat="43.360880" lon="1.778694">
        <ele>179.5</ele>
        <time>2015-08-04T14:05:13Z</time>
      </trkpt>
      <trkpt lat="43.360936" lon="1.778572">
        <ele>179.2</ele>
        <time>2015-08-04T14:05:15Z</time>
      </trkpt>
      <trkpt lat="43.360995" lon="1.778451">
        <ele>178.5</ele>
        <time>2015-08-04T14:05:17Z</time>
      </trkpt>
      <trkpt lat="43.361058" lon="1.778340">
        <ele>177.3</ele>
        <time>2015-08-04T14:05:19Z</time>
      </trkpt>
      <trkpt lat="43.361121" lon="1.778237">
        <ele>176.8</ele>
        <time>2015-08-04T14:05:21Z</time>
      </trkpt>
      <trkpt lat="43.361183" lon="1.778131">
        <ele>176.0</ele>
        <time>2015-08-04T14:05:23Z</time>
      </trkpt>
      <trkpt lat="43.361265" lon="1.777964">
        <ele>175.0</ele>
        <time>2015-08-04T14:05:26Z</time>
      </trkpt>
      <trkpt lat="43.361330" lon="1.777862">
        <ele>175.0</ele>
        <time>2015-08-04T14:05:28Z</time>
      </trkpt>
      <trkpt lat="43.361427" lon="1.777719">
        <ele>174.7</ele>
        <time>2015-08-04T14:05:31Z</time>
      </trkpt>
      <trkpt lat="43.361496" lon="1.777622">
        <ele>174.5</ele>
        <time>2015-08-04T14:05:33Z</time>
      </trkpt>
      <trkpt lat="43.361599" lon="1.777475">
        <ele>172.7</ele>
        <time>2015-08-04T14:05:36Z</time>
      </trkpt>
      <trkpt lat="43.361665" lon="1.777381">
        <ele>172.6</ele>
        <time>2015-08-04T14:05:38Z</time>
      </trkpt>
      <trkpt lat="43.361761" lon="1.777238">
        <ele>172.3</ele>
        <time>2015-08-04T14:05:41Z</time>
      </trkpt>
      <trkpt lat="43.361822" lon="1.777151">
        <ele>173.1</ele>
        <time>2015-08-04T14:05:43Z</time>
      </trkpt>
      <trkpt lat="43.361914" lon="1.777024">
        <ele>173.0</ele>
        <time>2015-08-04T14:05:46Z</time>
      </trkpt>
      <trkpt lat="43.361974" lon="1.776926">
        <ele>173.7</ele>
        <time>2015-08-04T14:05:48Z</time>
      </trkpt>
      <trkpt lat="43.362036" lon="1.776833">
        <ele>174.0</ele>
        <time>2015-08-04T14:05:50Z</time>
      </trkpt>
      <trkpt lat="43.362130" lon="1.776693">
        <ele>173.9</ele>
        <time>2015-08-04T14:05:53Z</time>
      </trkpt>
      <trkpt lat="43.362192" lon="1.776597">
        <ele>173.8</ele>
        <time>2015-08-04T14:05:55Z</time>
      </trkpt>
      <trkpt lat="43.362266" lon="1.776480">
        <ele>172.5</ele>
        <time>2015-08-04T14:05:57Z</time>
      </trkpt>
      <trkpt lat="43.362335" lon="1.776326">
        <ele>172.5</ele>
        <time>2015-08-04T14:05:59Z</time>
      </trkpt>
      <trkpt lat="43.362382" lon="1.776152">
        <ele>173.5</ele>
        <time>2015-08-04T14:06:01Z</time>
      </trkpt>
      <trkpt lat="43.362432" lon="1.775990">
        <ele>173.4</ele>
        <time>2015-08-04T14:06:03Z</time>
      </trkpt>
      <trkpt lat="43.362491" lon="1.775836">
        <ele>173.3</ele>
        <time>2015-08-04T14:06:05Z</time>
      </trkpt>
      <trkpt lat="43.362537" lon="1.775685">
        <ele>173.2</ele>
        <time>2015-08-04T14:06:07Z</time>
      </trkpt>
      <trkpt lat="43.362585" lon="1.775538">
        <ele>173.4</ele>
        <time>2015-08-04T14:06:09Z</time>
      </trkpt>
      <trkpt lat="43.362632" lon="1.775403">
        <ele>173.3</ele>
        <time>2015-08-04T14:06:11Z</time>
      </trkpt>
      <trkpt lat="43.362679" lon="1.775281">
        <ele>173.6</ele>
        <time>2015-08-04T14:06:13Z</time>
      </trkpt>
      <trkpt lat="43.362719" lon="1.775159">
        <ele>173.9</ele>
        <time>2015-08-04T14:06:15Z</time>
      </trkpt>
      <trkpt lat="43.362758" lon="1.775043">
        <ele>173.9</ele>
        <time>2015-08-04T14:06:17Z</time>
      </trkpt>
      <trkpt lat="43.362802" lon="1.774925">
        <ele>173.9</ele>
        <time>2015-08-04T14:06:19Z</time>
      </trkpt>
      <trkpt lat="43.362877" lon="1.774758">
        <ele>173.8</ele>
        <time>2015-08-04T14:06:22Z</time>
      </trkpt>
      <trkpt lat="43.362923" lon="1.774643">
        <ele>173.4</ele>
        <time>2015-08-04T14:06:24Z</time>
      </trkpt>
      <trkpt lat="43.362968" lon="1.774539">
        <ele>172.9</ele>
        <time>2015-08-04T14:06:26Z</time>
      </trkpt>
      <trkpt lat="43.363013" lon="1.774400">
        <ele>171.9</ele>
        <time>2015-08-04T14:06:29Z</time>
      </trkpt>
      <trkpt lat="43.363051" lon="1.774287">
        <ele>170.4</ele>
        <time>2015-08-04T14:06:32Z</time>
      </trkpt>
      <trkpt lat="43.363134" lon="1.774144">
        <ele>169.3</ele>
        <time>2015-08-04T14:06:36Z</time>
      </trkpt>
      <trkpt lat="43.363191" lon="1.774034">
        <ele>168.5</ele>
        <time>2015-08-04T14:06:39Z</time>
      </trkpt>
      <trkpt lat="43.363218" lon="1.773851">
        <ele>167.9</ele>
        <time>2015-08-04T14:06:43Z</time>
      </trkpt>
      <trkpt lat="43.363229" lon="1.773676">
        <ele>169.2</ele>
        <time>2015-08-04T14:06:48Z</time>
      </trkpt>
      <trkpt lat="43.363241" lon="1.773496">
        <ele>170.2</ele>
        <time>2015-08-04T14:06:53Z</time>
      </trkpt>
      <trkpt lat="43.363263" lon="1.773365">
        <ele>171.4</ele>
        <time>2015-08-04T14:06:56Z</time>
      </trkpt>
      <trkpt lat="43.363300" lon="1.773222">
        <ele>173.7</ele>
        <time>2015-08-04T14:07:00Z</time>
      </trkpt>
      <trkpt lat="43.363329" lon="1.773099">
        <ele>175.1</ele>
        <time>2015-08-04T14:07:04Z</time>
      </trkpt>
      <trkpt lat="43.363221" lon="1.772935">
        <ele>184.4</ele>
        <time>2015-08-04T14:09:28Z</time>
      </trkpt>
      <trkpt lat="43.363122" lon="1.772912">
        <ele>183.9</ele>
        <time>2015-08-04T14:09:32Z</time>
      </trkpt>
      <trkpt lat="43.363051" lon="1.772998">
        <ele>183.6</ele>
        <time>2015-08-04T14:09:36Z</time>
      </trkpt>
      <trkpt lat="43.362994" lon="1.773131">
        <ele>183.8</ele>
        <time>2015-08-04T14:09:40Z</time>
      </trkpt>
      <trkpt lat="43.362959" lon="1.773253">
        <ele>183.8</ele>
        <time>2015-08-04T14:09:43Z</time>
      </trkpt>
      <trkpt lat="43.362939" lon="1.773375">
        <ele>184.9</ele>
        <time>2015-08-04T14:09:46Z</time>
      </trkpt>
      <trkpt lat="43.362905" lon="1.773503">
        <ele>184.6</ele>
        <time>2015-08-04T14:09:49Z</time>
      </trkpt>
      <trkpt lat="43.362864" lon="1.773665">
        <ele>184.5</ele>
        <time>2015-08-04T14:09:52Z</time>
      </trkpt>
      <trkpt lat="43.362830" lon="1.773842">
        <ele>185.1</ele>
        <time>2015-08-04T14:09:55Z</time>
      </trkpt>
      <trkpt lat="43.362812" lon="1.773966">
        <ele>185.1</ele>
        <time>2015-08-04T14:09:57Z</time>
      </trkpt>
      <trkpt lat="43.362787" lon="1.774087">
        <ele>184.8</ele>
        <time>2015-08-04T14:09:59Z</time>
      </trkpt>
      <trkpt lat="43.362753" lon="1.774206">
        <ele>184.5</ele>
        <time>2015-08-04T14:10:01Z</time>
      </trkpt>
      <trkpt lat="43.362721" lon="1.774327">
        <ele>184.7</ele>
        <time>2015-08-04T14:10:03Z</time>
      </trkpt>
      <trkpt lat="43.362680" lon="1.774452">
        <ele>184.5</ele>
        <time>2015-08-04T14:10:05Z</time>
      </trkpt>
      <trkpt lat="43.362644" lon="1.774582">
        <ele>184.7</ele>
        <time>2015-08-04T14:10:07Z</time>
      </trkpt>
      <trkpt lat="43.362600" lon="1.774706">
        <ele>185.5</ele>
        <time>2015-08-04T14:10:09Z</time>
      </trkpt>
      <trkpt lat="43.362554" lon="1.774827">
        <ele>185.6</ele>
        <time>2015-08-04T14:10:11Z</time>
      </trkpt>
      <trkpt lat="43.362502" lon="1.774945">
        <ele>185.3</ele>
        <time>2015-08-04T14:10:13Z</time>
      </trkpt>
      <trkpt lat="43.362410" lon="1.775073">
        <ele>185.4</ele>
        <time>2015-08-04T14:10:16Z</time>
      </trkpt>
      <trkpt lat="43.362370" lon="1.775200">
        <ele>186.8</ele>
        <time>2015-08-04T14:10:20Z</time>
      </trkpt>
      <trkpt lat="43.362347" lon="1.775332">
        <ele>186.6</ele>
        <time>2015-08-04T14:10:24Z</time>
      </trkpt>
    </trkseg>
  </trk>
</gpx>

